
Distance (Route):
Temperature : -50.4°C
Humidity : 0%
Pressure : 32.2hPa| Receiver | Date | Latitude | Longitude | Direction | Speed | Altitude | Climb | Temperature | Humidity | Pressure | Voltage | Killtimer | Uptime | BKT | XDATA |
|---|---|---|---|---|---|---|---|---|---|---|---|---|---|---|---|
| AA1-15 | 2026-09-01 13:03:16 | 54.87334 | 20.06841 | 213° | 93km/h | 1258m | 9m/s | -50.4°C | 0% | 32.2hPa | 2.4V | 00:00:00 | 00:00:00 | 00:00:00 | |
| AA1-15 | 2026-09-01 13:03:07 | 54.87521 | 20.07036 | 200° | 97km/h | 1166m | 8.1m/s | -49.7°C | 0% | 30.9hPa | 2.4V | 00:00:00 | 00:00:00 | 00:00:00 | |
| AA1-15 | 2026-09-01 13:02:11 | 54.90866 | 22.61824 | 0° | 0km/h | 159087m | 0m/s | -49.8°C | 0% | 23.4hPa | 2.4V | 00:00:00 | 00:00:00 | 00:00:00 | |
| AA1-15 | 2026-09-01 12:59:48 | 54.95194 | 19.26652 | 270° | 13km/h | 2124m | 8.3m/s | -40.2°C | 0% | 10.1hPa | 2.4V | 00:00:00 | 00:00:00 | 00:00:00 | |
| AA1-15 | 2026-09-01 12:59:37 | 54.95193 | 19.26712 | 270° | 13km/h | 1999m | 8.1m/s | -40.7°C | 0% | 9.5hPa | 2.4V | 00:00:00 | 00:00:00 | 00:00:00 | |
| AA1-15 | 2026-09-01 12:59:35 | 54.95192 | 19.26724 | 269° | 13km/h | 1981m | 7.7m/s | -40.6°C | 0% | 9.4hPa | 2.4V | 00:00:00 | 00:00:00 | 00:00:00 | |
| AA1-15 | 2026-09-01 12:59:30 | 54.95196 | 19.26757 | 270° | 13km/h | 1935m | 8m/s | -40.4°C | 0% | 9.1hPa | 2.4V | 00:00:00 | 00:00:00 | 00:00:00 | |
| AA1-15 | 2026-09-01 12:59:23 | 54.95187 | 19.26789 | 272° | 15km/h | 1900m | 7.8m/s | -39.4°C | 0% | 8.8hPa | 2.4V | 00:00:00 | 00:00:00 | 00:00:00 | |
| AA1-15 | 2026-09-01 12:59:19 | 54.95189 | 19.26815 | 270° | 16km/h | 1867m | 8.1m/s | -38.6°C | 0% | 8.6hPa | 2.4V | 00:00:00 | 00:00:00 | 00:00:00 | |
| AA1-15 | 2026-09-01 12:59:18 | 54.95190 | 19.26825 | 269° | 13km/h | 1854m | 8.3m/s | -38.5°C | 0% | 8.6hPa | 2.4V | 00:00:00 | 00:00:00 | 00:00:00 | |
| AA1-15 | 2026-09-01 12:59:16 | 54.95191 | 19.26841 | 269° | 13km/h | 1833m | 8.2m/s | -38.6°C | 0% | 8.5hPa | 2.4V | 00:00:00 | 00:00:00 | 00:00:00 | |
| AA1-15 | 2026-09-01 12:59:12 | 54.95190 | 19.26867 | 268° | 18km/h | 1810m | 8m/s | -38.2°C | 0% | 8.3hPa | 2.4V | 00:00:00 | 00:00:00 | 00:00:00 | |
| AA1-15 | 2026-09-01 12:59:08 | 54.53088 | 22.21867 | 0° | 0km/h | 159087m | 0m/s | -38.2°C | 0% | 8.1hPa | 2.4V | 00:00:00 | 00:00:00 | 00:00:00 | |
| AA1-15 | 2026-09-01 12:58:56 | 54.53088 | 22.21867 | 0° | 0km/h | 159087m | 0m/s | -37.9°C | 0% | 7.5hPa | 2.4V | 00:00:00 | 00:00:00 | 00:00:00 | |
| AA1-15 | 2026-09-01 12:58:44 | 54.53081 | 22.21852 | 51° | 4km/h | 159087m | 7.5m/s | -36.6°C | 0% | 7hPa | 2.4V | 00:00:00 | 00:00:00 | 00:00:00 | |
| AA1-15 | 2026-09-01 12:58:33 | 54.53095 | 22.21914 | 297° | 13km/h | 2575m | 8.4m/s | -36°C | 0% | 6.5hPa | 2.4V | 00:00:00 | 00:00:00 | 00:00:00 | |
| AA1-15 | 2026-09-01 12:58:20 | 54.53096 | 22.21995 | 255° | 11km/h | 2481m | 8.7m/s | -34.2°C | 0% | 6hPa | 2.4V | 00:00:00 | 00:00:00 | 00:00:00 | |
| AA1-15 | 2026-09-01 12:58:09 | 54.53091 | 22.22060 | 219° | 9km/h | 2398m | 10m/s | -32.3°C | 0% | 5.6hPa | 2.4V | 00:00:00 | 00:00:00 | 00:00:00 | |
| AA1-15 | 2026-09-01 12:57:45 | 54.53113 | 22.22177 | 274° | 13km/h | 2149m | 8.3m/s | -33.2°C | 0% | 5.7hPa | 2.4V | 00:00:00 | 00:00:00 | 00:00:00 | |
| AA1-15 | 2026-09-01 12:57:34 | 54.53117 | 22.22247 | 259° | 15km/h | 2067m | 7.7m/s | -33.6°C | 0% | 5.8hPa | 2.4V | 00:00:00 | 00:00:00 | 00:00:00 | |
| AA1-15 | 2026-09-01 12:57:24 | 55.08145 | 19.72943 | 0° | 0km/h | 159087m | 0m/s | -33.9°C | 0% | 5.9hPa | 2.4V | 00:00:00 | 00:00:00 | 00:00:00 | |
| AA1-15 | 2026-09-01 12:57:14 | 55.08145 | 19.72943 | 0° | 0km/h | 159087m | 0m/s | -34.1°C | 0% | 5.9hPa | 2.4V | 00:00:00 | 00:00:00 | 00:00:00 | |
| AA1-15 | 2026-09-01 12:56:59 | 55.08168 | 19.72923 | 154° | 13km/h | 159087m | 10.6m/s | -34.6°C | 0% | 6hPa | 2.4V | 00:00:00 | 00:00:00 | 00:00:00 | |
| AA1-15 | 2026-09-01 12:56:48 | 55.08185 | 19.72941 | 266° | 13km/h | 2679m | 7.8m/s | -35°C | 0% | 6.1hPa | 2.4V | 00:00:00 | 00:00:00 | 00:00:00 | |
| AA1-15 | 2026-09-01 12:56:16 | 55.08185 | 19.73137 | 271° | 13km/h | 2439m | 8m/s | -35.7°C | 0% | 6.4hPa | 2.4V | 00:00:00 | 00:00:00 | 00:00:00 | |
| AA1-15 | 2026-09-01 12:56:05 | 55.08190 | 19.73211 | 270° | 16km/h | 2343m | 8m/s | -35.8°C | 0% | 6.4hPa | 2.4V | 00:00:00 | 00:00:00 | 00:00:00 | |
| AA1-15 | 2026-09-01 12:55:54 | 55.08188 | 19.73280 | 270° | 13km/h | 2255m | 8m/s | -35.9°C | 0% | 6.5hPa | 2.4V | 00:00:00 | 00:00:00 | 00:00:00 | |
| AA1-15 | 2026-09-01 12:55:32 | 55.08198 | 19.73409 | 271° | 13km/h | 2094m | 8.2m/s | -36°C | 0% | 6.7hPa | 2.4V | 00:00:00 | 00:00:00 | 00:00:00 | |
| AA1-15 | 2026-09-01 12:55:15 | 55.08210 | 19.73510 | 270° | 13km/h | 1939m | 8m/s | -36.2°C | 0% | 6.8hPa | 2.4V | 00:00:00 | 00:00:00 | 00:00:00 | |
| AA1-15 | 2026-09-01 12:55:11 | 55.08217 | 19.73529 | 266° | 16km/h | 1897m | 8.2m/s | -36.2°C | 0% | 6.8hPa | 2.4V | 00:00:00 | 00:00:00 | 00:00:00 | |
| AA1-15 | 2026-09-01 12:55:10 | 55.08221 | 19.73533 | 267° | 13km/h | 1883m | 7.7m/s | -36.3°C | 0% | 6.9hPa | 2.4V | 00:00:00 | 00:00:00 | 00:00:00 | |
| AA1-15 | 2026-09-01 12:55:07 | 55.08224 | 19.73549 | 269° | 16km/h | 1855m | 8.2m/s | -36.3°C | 0% | 6.9hPa | 2.4V | 00:00:00 | 00:00:00 | 00:00:00 | |
| AA1-15 | 2026-09-01 12:55:04 | 55.08222 | 19.73567 | 273° | 13km/h | 1839m | 8m/s | -36.2°C | 0% | 6.9hPa | 2.4V | 00:00:00 | 00:00:00 | 00:00:00 | |
| AA1-15 | 2026-09-01 12:54:59 | 55.08219 | 19.73593 | 270° | 15km/h | 1815m | 8.2m/s | -36.2°C | 0% | 6.9hPa | 2.4V | 00:00:00 | 00:00:00 | 00:00:00 | |
| AA1-15 | 2026-09-01 12:54:53 | 55.08223 | 19.73627 | 270° | 16km/h | 1786m | 8.1m/s | -36.2°C | 0% | 7hPa | 2.4V | 00:00:00 | 00:00:00 | 00:00:00 | |
| AA1-15 | 2026-09-01 12:54:51 | 55.08221 | 19.73638 | 270° | 13km/h | 1771m | 8.2m/s | -36.3°C | 0% | 7hPa | 2.4V | 00:00:00 | 00:00:00 | 00:00:00 | |
| AA1-15 | 2026-09-01 12:54:48 | 55.08217 | 19.73677 | 269° | 95km/h | 1747m | 8.1m/s | -36.4°C | 0% | 7hPa | 2.4V | 00:00:00 | 00:00:00 | 00:00:00 | |
| AA1-15 | 2026-09-01 12:54:47 | 55.08223 | 19.73761 | 251° | 102km/h | 1732m | 9.4m/s | -36.5°C | 0% | 7hPa | 2.4V | 00:00:00 | 00:00:00 | 00:00:00 | |
| AA1-15 | 2026-09-01 12:54:44 | 55.08244 | 19.73844 | 241° | 100km/h | 1718m | 8m/s | -36.6°C | 0% | 7hPa | 2.4V | 00:00:00 | 00:00:00 | 00:00:00 | |
| AA1-15 | 2026-09-01 12:54:42 | 55.08270 | 19.73915 | 233° | 95km/h | 1705m | 8.2m/s | -36.6°C | 0% | 7.1hPa | 2.4V | 00:00:00 | 00:00:00 | 00:00:00 | |
| AA1-15 | 2026-09-01 12:54:39 | 55.08318 | 19.73999 | 213° | 100km/h | 1678m | 8.2m/s | -36.6°C | 0% | 7.1hPa | 2.4V | 00:00:00 | 00:00:00 | 00:00:00 | |
| AA1-15 | 2026-09-01 12:54:32 | 55.08460 | 19.74054 | 169° | 95km/h | 1609m | 8.1m/s | -36.8°C | 0% | 7.2hPa | 2.4V | 00:00:00 | 00:00:00 | 00:00:00 | |
| AA1-15 | 2026-09-01 12:54:31 | 55.08483 | 19.74044 | 164° | 100km/h | 1601m | 8.1m/s | -36.7°C | 0% | 7.2hPa | 2.4V | 00:00:00 | 00:00:00 | 00:00:00 | |
| AA1-15 | 2026-09-01 12:54:30 | 55.08507 | 19.74030 | 159° | 99km/h | 1593m | 8m/s | -36.8°C | 0% | 7.2hPa | 2.4V | 00:00:00 | 00:00:00 | 00:00:00 | |
| AA1-15 | 2026-09-01 12:54:27 | 55.08573 | 19.73963 | 140° | 99km/h | 1564m | 8.1m/s | -36.8°C | 0% | 7.2hPa | 2.4V | 00:00:00 | 00:00:00 | 00:00:00 | |
| AA1-15 | 2026-09-01 12:54:26 | 55.08592 | 19.73933 | 131° | 93km/h | 1555m | 8.1m/s | -36.8°C | 0% | 7.2hPa | 2.4V | 00:00:00 | 00:00:00 | 00:00:00 | |
| AA1-15 | 2026-09-01 12:54:20 | 55.08643 | 19.73695 | 95° | 99km/h | 1504m | 8.9m/s | -36.9°C | 0% | 7.3hPa | 2.4V | 00:00:00 | 00:00:00 | 00:00:00 | |
| AA1-15 | 2026-09-01 12:54:19 | 55.08640 | 19.73649 | 94° | 95km/h | 1498m | 7.8m/s | -36.8°C | 0% | 7.3hPa | 2.4V | 00:00:00 | 00:00:00 | 00:00:00 | |
| AA1-15 | 2026-09-01 12:54:17 | 55.08629 | 19.73561 | 78° | 99km/h | 1485m | 8m/s | -36.9°C | 0% | 7.3hPa | 2.4V | 00:00:00 | 00:00:00 | 00:00:00 | |
| AA1-15 | 2026-09-01 12:54:16 | 55.08618 | 19.73517 | 74° | 95km/h | 1477m | 8.1m/s | -37°C | 0% | 7.3hPa | 2.4V | 00:00:00 | 00:00:00 | 00:00:00 | |
| AA1-15 | 2026-09-01 12:54:14 | 55.08575 | 19.73398 | 56° | 97km/h | 1454m | 8.1m/s | -37.2°C | 0% | 7.3hPa | 2.4V | 00:00:00 | 00:00:00 | 00:00:00 | |
| AA1-15 | 2026-09-01 12:54:12 | 55.08560 | 19.73364 | 50° | 97km/h | 1444m | 8.1m/s | -37.2°C | 0% | 7.3hPa | 2.4V | 00:00:00 | 00:00:00 | 00:00:00 | |
| AA1-15 | 2026-09-01 12:54:11 | 55.08543 | 19.73333 | 41° | 95km/h | 1434m | 8.2m/s | -37.2°C | 0% | 7.3hPa | 2.4V | 00:00:00 | 00:00:00 | 00:00:00 | |
| AA1-15 | 2026-09-01 12:54:09 | 55.08505 | 19.73282 | 30° | 97km/h | 1412m | 8.1m/s | -37.3°C | 0% | 7.3hPa | 2.4V | 00:00:00 | 00:00:00 | 00:00:00 | |
| AA1-15 | 2026-09-01 12:54:08 | 55.08483 | 19.73261 | 27° | 97km/h | 1402m | 8.1m/s | -37.3°C | 0% | 7.4hPa | 2.4V | 00:00:00 | 00:00:00 | 00:00:00 | |
| AA1-15 | 2026-09-01 12:54:06 | 55.08438 | 19.73233 | 11° | 97km/h | 1382m | 8.1m/s | -37.4°C | 0% | 7.4hPa | 2.4V | 00:00:00 | 00:00:00 | 00:00:00 | |
| AA1-15 | 2026-09-01 12:54:05 | 55.08414 | 19.73227 | 6° | 95km/h | 1374m | 7.9m/s | -37.4°C | 0% | 7.4hPa | 2.4V | 00:00:00 | 00:00:00 | 00:00:00 | |
| AA1-15 | 2026-09-01 12:54:03 | 55.08349 | 19.73210 | 360° | 100km/h | 1372m | 8.6m/s | -37.4°C | 0% | 7.4hPa | 2.4V | 00:00:00 | 00:00:00 | 00:00:00 | |
| AA1-15 | 2026-09-01 12:54:01 | 55.08322 | 19.73216 | 360° | 95km/h | 1346m | 8.3m/s | -37.4°C | 0% | 7.4hPa | 2.4V | 00:00:00 | 00:00:00 | 00:00:00 | |
| AA1-15 | 2026-09-01 12:53:59 | 55.08275 | 19.73229 | 360° | 95km/h | 1308m | 8.2m/s | -37.4°C | 0% | 7.4hPa | 2.4V | 00:00:00 | 00:00:00 | 00:00:00 | |
| AA1-15 | 2026-09-01 12:53:58 | 55.08251 | 19.73232 | 2° | 100km/h | 1294m | 6.8m/s | -37.4°C | 0% | 7.4hPa | 2.4V | 00:00:00 | 00:00:00 | 00:00:00 | |
| AA1-15 | 2026-09-01 12:53:57 | 55.08228 | 19.73230 | 360° | 95km/h | 1291m | 7.2m/s | -37.3°C | 0% | 7.4hPa | 2.4V | 00:00:00 | 00:00:00 | 00:00:00 | |
| AA1-15 | 2026-09-01 12:53:55 | 55.08181 | 19.73219 | 360° | 93km/h | 1291m | 8m/s | -37.3°C | 0% | 7.5hPa | 2.4V | 00:00:00 | 00:00:00 | 00:00:00 | |
| AA1-15 | 2026-09-01 12:53:53 | 55.08134 | 19.73204 | 0° | 93km/h | 1294m | 7.7m/s | -37.4°C | 0% | 7.5hPa | 2.4V | 00:00:00 | 00:00:00 | 00:00:00 | |
| AA1-15 | 2026-09-01 12:53:52 | 55.08086 | 19.73189 | 0° | 100km/h | 1296m | 8.2m/s | -37.5°C | 0% | 7.5hPa | 2.4V | 00:00:00 | 00:00:00 | 00:00:00 | |
| AA1-15 | 2026-09-01 12:53:50 | 55.08061 | 19.73187 | 360° | 95km/h | 1287m | 8.2m/s | -37.5°C | 0% | 7.5hPa | 2.4V | 00:00:00 | 00:00:00 | 00:00:00 | |
| AA1-15 | 2026-09-01 12:53:49 | 55.08034 | 19.73183 | 0° | 100km/h | 1281m | 7.8m/s | -37.5°C | 0% | 7.5hPa | 2.4V | 00:00:00 | 00:00:00 | 00:00:00 | |
| AA1-15 | 2026-09-01 12:53:47 | 55.07974 | 19.73156 | 0° | 100km/h | 1274m | 8.1m/s | -37.6°C | 0% | 7.5hPa | 2.4V | 00:00:00 | 00:00:00 | 00:00:00 | |
| AA1-15 | 2026-09-01 12:53:44 | 55.07862 | 19.73026 | 26° | 99km/h | 1267m | 8.2m/s | -37.8°C | 0% | 7.5hPa | 2.4V | 00:00:00 | 00:00:00 | 00:00:00 | |
| AA1-15 | 2026-09-01 12:53:42 | 55.07825 | 19.72973 | 59° | 97km/h | 1246m | 7.8m/s | -37.9°C | 0% | 7.6hPa | 2.4V | 00:00:00 | 00:00:00 | 00:00:00 | |
| AA1-15 | 2026-09-01 12:53:40 | 55.07816 | 19.72898 | 99° | 97km/h | 1223m | 7.8m/s | -37.8°C | 0% | 7.6hPa | 2.3V | 00:00:00 | 00:00:00 | 00:00:00 | |
| AA1-15 | 2026-09-01 12:53:38 | 55.07836 | 19.72830 | 133° | 97km/h | 1205m | 7.9m/s | -37.9°C | 0% | 7.6hPa | 2.4V | 00:00:00 | 00:00:00 | 00:00:00 | |
| AA1-15 | 2026-09-01 12:53:36 | 55.07991 | 19.73314 | 0° | 0km/h | 159087m | 0m/s | -38°C | 0% | 7.6hPa | 2.3V | 00:00:00 | 00:00:00 | 00:00:00 | |
| AA1-15 | 2026-09-01 12:53:14 | 55.08035 | 19.73820 | 257° | 95km/h | 704m | 7.9m/s | -37.5°C | 0% | 7.8hPa | 2.4V | 00:00:00 | 00:00:00 | 00:00:00 | |
| AA1-15 | 2026-09-01 12:53:13 | 55.08046 | 19.73854 | 247° | 97km/h | 651m | 8m/s | -37.6°C | 0% | 7.8hPa | 2.4V | 00:00:00 | 00:00:00 | 00:00:00 | |
| AA1-15 | 2026-09-01 12:53:11 | 55.08091 | 19.73902 | 228° | 95km/h | 472m | 8m/s | -37.5°C | 0% | 7.8hPa | 2.4V | 00:00:00 | 00:00:00 | 00:00:00 | |
| AA1-15 | 2026-09-01 12:53:08 | 55.08349 | 19.73974 | 197° | 84km/h | 19m | 4.1m/s | -37.4°C | 0% | 7.9hPa | 2.4V | 00:00:00 | 00:00:00 | 00:00:00 | |
| AA1-15 | 2026-09-01 12:53:06 | 55.08362 | 19.73973 | 188° | 95km/h | 15m | -0.2m/s | -37.4°C | 0% | 7.9hPa | 2.4V | 00:00:00 | 00:00:00 | 00:00:00 | |
| AA1-15 | 2026-09-01 12:52:58 | 54.92076 | 19.89552 | 271° | 20km/h | 159087m | 8m/s | -37.5°C | 0% | 8hPa | 2.4V | 00:00:00 | 00:00:00 | 00:00:00 | |
| AA1-15 | 2026-09-01 12:52:47 | 54.92075 | 19.89627 | 271° | 16km/h | 2655m | 7.9m/s | -37.6°C | 0% | 8hPa | 2.4V | 00:00:00 | 00:00:00 | 00:00:00 | |
| AA1-15 | 2026-09-01 12:52:37 | 54.92072 | 19.89689 | 270° | 15km/h | 2571m | 8.1m/s | -37.5°C | 0% | 8.1hPa | 2.4V | 00:00:00 | 00:00:00 | 00:00:00 | |
| AA1-15 | 2026-09-01 12:52:27 | 54.92069 | 19.89772 | 269° | 13km/h | 2478m | 8m/s | -37.4°C | 0% | 8.2hPa | 2.4V | 00:00:00 | 00:00:00 | 00:00:00 | |
| AA1-15 | 2026-09-01 12:52:17 | 54.92075 | 19.89840 | 270° | 13km/h | 2383m | 8m/s | -37.8°C | 0% | 8.3hPa | 2.4V | 00:00:00 | 00:00:00 | 00:00:00 | |
| AA1-15 | 2026-09-01 12:52:07 | 54.92076 | 19.89898 | 270° | 15km/h | 2300m | 8m/s | -38.1°C | 0% | 8.4hPa | 2.4V | 00:00:00 | 00:00:00 | 00:00:00 | |
| AA1-15 | 2026-09-01 12:51:56 | 54.92082 | 19.89955 | 270° | 13km/h | 2213m | 8m/s | -38°C | 0% | 8.5hPa | 2.4V | 00:00:00 | 00:00:00 | 00:00:00 | |
| AA1-15 | 2026-09-01 12:51:46 | 54.92072 | 19.90006 | 271° | 15km/h | 2149m | 8.1m/s | -38.4°C | 0% | 8.6hPa | 2.4V | 00:00:00 | 00:00:00 | 00:00:00 | |
| AA1-15 | 2026-09-01 12:51:35 | 54.92066 | 19.90078 | 267° | 16km/h | 2061m | 8.3m/s | -39.2°C | 0% | 8.7hPa | 2.4V | 00:00:00 | 00:00:00 | 00:00:00 | |
| AA1-15 | 2026-09-01 12:51:25 | 54.92072 | 19.90146 | 270° | 15km/h | 1990m | 8m/s | -39.5°C | 0% | 8.8hPa | 2.4V | 00:00:00 | 00:00:00 | 00:00:00 | |
| AA1-15 | 2026-09-01 12:51:23 | 54.92070 | 19.90156 | 271° | 15km/h | 1982m | 7.9m/s | -39.6°C | 0% | 8.8hPa | 2.4V | 00:00:00 | 00:00:00 | 00:00:00 | |
| AA1-15 | 2026-09-01 12:51:22 | 54.92069 | 19.90168 | 270° | 15km/h | 1971m | 8m/s | -39.8°C | 0% | 8.9hPa | 2.4V | 00:00:00 | 00:00:00 | 00:00:00 | |
| AA1-15 | 2026-09-01 12:51:16 | 54.92064 | 19.90197 | 270° | 16km/h | 1935m | 8.1m/s | -39.8°C | 0% | 8.9hPa | 2.4V | 00:00:00 | 00:00:00 | 00:00:00 | |
| AA1-15 | 2026-09-01 12:51:13 | 54.92057 | 19.90214 | 270° | 13km/h | 1907m | 8m/s | -39.9°C | 0% | 8.9hPa | 2.4V | 00:00:00 | 00:00:00 | 00:00:00 | |
| AA1-15 | 2026-09-01 12:51:07 | 54.92022 | 19.90242 | 269° | 13km/h | 1817m | 7.6m/s | -39.9°C | 0% | 9hPa | 2.4V | 00:00:00 | 00:00:00 | 00:00:00 | |
| AA1-15 | 2026-09-01 12:50:57 | 54.86301 | 22.48508 | 0° | 0km/h | 159087m | 0m/s | -40.2°C | 0% | 9.1hPa | 2.4V | 00:00:00 | 00:00:00 | 00:00:00 | |
| AA1-15 | 2026-09-01 12:50:37 | 54.86325 | 22.48546 | 272° | 13km/h | 2568m | 8.2m/s | -40.1°C | 0% | 9.3hPa | 2.4V | 00:00:00 | 00:00:00 | 00:00:00 | |
| AA1-15 | 2026-09-01 12:50:26 | 54.86321 | 22.48616 | 270° | 15km/h | 2484m | 8.1m/s | -40.1°C | 0% | 9.4hPa | 2.4V | 00:00:00 | 00:00:00 | 00:00:00 | |
| AA1-15 | 2026-09-01 12:50:15 | 54.86304 | 22.48694 | 268° | 16km/h | 2403m | 7.7m/s | -39.8°C | 0% | 9.6hPa | 2.4V | 00:00:00 | 00:00:00 | 00:00:00 | |
| AA1-15 | 2026-09-01 12:50:04 | 54.86325 | 22.48757 | 276° | 13km/h | 2321m | 8.8m/s | -39.7°C | 0% | 9.7hPa | 2.4V | 00:00:00 | 00:00:00 | 00:00:00 | |
| AA1-15 | 2026-09-01 12:49:54 | 54.92024 | 19.90018 | 24° | 97km/h | 159087m | 8.4m/s | -39.6°C | 0% | 9.8hPa | 2.4V | 00:00:00 | 00:00:00 | 00:00:00 | |
| AA1-15 | 2026-09-01 12:49:44 | 54.91779 | 19.89821 | 41° | 97km/h | 1303m | 7.9m/s | -39.7°C | 0% | 9.9hPa | 2.4V | 00:00:00 | 00:00:00 | 00:00:00 | |
| AA1-15 | 2026-09-01 12:49:43 | 54.91767 | 19.89786 | 59° | 97km/h | 1302m | 7.8m/s | -39.7°C | 0% | 9.9hPa | 2.4V | 00:00:00 | 00:00:00 | 00:00:00 | |
| AA1-15 | 2026-09-01 12:49:40 | 54.91766 | 19.89684 | 100° | 99km/h | 1310m | 7.7m/s | -39.7°C | 0% | 9.9hPa | 2.4V | 00:00:00 | 00:00:00 | 00:00:00 | |
| AA1-15 | 2026-09-01 12:49:35 | 54.92353 | 19.90467 | 0° | 0km/h | 159087m | 0m/s | -39.8°C | 0% | 10hPa | 2.4V | 00:00:00 | 00:00:00 | 00:00:00 | |
| AA1-15 | 2026-09-01 12:49:24 | 54.92358 | 19.90506 | 258° | 91km/h | 159087m | 9.1m/s | -40.2°C | 0% | 10.1hPa | 2.4V | 00:00:00 | 00:00:00 | 00:00:00 | |
| AA1-15 | 2026-09-01 12:49:15 | 54.92408 | 19.90902 | 258° | 91km/h | 1981m | 9.1m/s | -40.5°C | 0% | 10.2hPa | 2.4V | 00:00:00 | 00:00:00 | 00:00:00 | |
| AA1-15 | 2026-09-01 12:49:06 | 54.92733 | 19.92073 | 177° | 91km/h | 1920m | 0.6m/s | -40.5°C | 0% | 10.3hPa | 2.4V | 00:00:00 | 00:00:00 | 00:00:00 | |
| AA1-15 | 2026-09-01 12:49:05 | 54.92766 | 19.92461 | 166° | 99km/h | 1759m | -1.4m/s | -40.5°C | 0% | 10.3hPa | 2.4V | 00:00:00 | 00:00:00 | 00:00:00 | |
| AA1-15 | 2026-09-01 12:49:04 | 54.92918 | 19.93287 | 158° | 95km/h | 1886m | -5.1m/s | -40.5°C | 0% | 10.4hPa | 2.4V | 00:00:00 | 00:00:00 | 00:00:00 | |
| AA1-15 | 2026-09-01 12:49:01 | 54.88377 | 20.04029 | 354° | 11km/h | 159087m | 8.2m/s | -40.7°C | 0% | 10.4hPa | 2.4V | 00:00:00 | 00:00:00 | 00:00:00 | |
| AA1-15 | 2026-09-01 12:48:50 | 54.88340 | 20.04034 | 1° | 9km/h | 2948m | 8.2m/s | -41.2°C | 0% | 10.5hPa | 2.4V | 00:00:00 | 00:00:00 | 00:00:00 | |
| AA1-15 | 2026-09-01 12:48:39 | 54.88270 | 20.04048 | 360° | 16km/h | 2861m | 8.2m/s | -41.7°C | 0% | 10.7hPa | 2.4V | 00:00:00 | 00:00:00 | 00:00:00 | |
| AA1-15 | 2026-09-01 12:48:29 | 54.88217 | 20.04052 | 0° | 16km/h | 2758m | 8.3m/s | -41.9°C | 0% | 10.8hPa | 2.4V | 00:00:00 | 00:00:00 | 00:00:00 | |
| AA1-15 | 2026-09-01 12:48:19 | 54.88178 | 20.04055 | 0° | 9km/h | 2689m | 8.1m/s | -42°C | 0% | 10.9hPa | 2.4V | 00:00:00 | 00:00:00 | 00:00:00 | |
| AA1-15 | 2026-09-01 12:48:08 | 54.88155 | 20.04053 | 360° | 16km/h | 2621m | 7.9m/s | -42°C | 0% | 11hPa | 2.4V | 00:00:00 | 00:00:00 | 00:00:00 | |
| AA1-15 | 2026-09-01 12:47:35 | 54.88011 | 20.04047 | 0° | 11km/h | 2372m | 8.2m/s | -41.3°C | 0% | 11.4hPa | 2.4V | 00:00:00 | 00:00:00 | 00:00:00 | |
| AA1-15 | 2026-09-01 12:47:24 | 54.87975 | 20.04048 | 360° | 16km/h | 2295m | 8.1m/s | -41.2°C | 0% | 11.5hPa | 2.4V | 00:00:00 | 00:00:00 | 00:00:00 | |
| AA1-15 | 2026-09-01 12:47:13 | 54.87932 | 20.04042 | 0° | 18km/h | 2206m | 8.2m/s | -41.5°C | 0% | 11.7hPa | 2.4V | 00:00:00 | 00:00:00 | 00:00:00 | |
| AA1-15 | 2026-09-01 12:46:51 | 54.87862 | 20.04052 | 0° | 9km/h | 1975m | 8.2m/s | -41.9°C | 0% | 11.9hPa | 2.4V | 00:00:00 | 00:00:00 | 00:00:00 | |
| AA1-15 | 2026-09-01 12:46:50 | 54.87860 | 20.04052 | 1° | 13km/h | 1964m | 8.1m/s | -41.8°C | 0% | 12hPa | 2.4V | 00:00:00 | 00:00:00 | 00:00:00 | |
| AA1-15 | 2026-09-01 12:46:48 | 54.87847 | 20.04052 | 1° | 95km/h | 1957m | 8.1m/s | -41.8°C | 0% | 12hPa | 2.4V | 00:00:00 | 00:00:00 | 00:00:00 | |
| AA1-15 | 2026-09-01 12:46:45 | 54.87744 | 20.04055 | 351° | 97km/h | 1909m | 8.2m/s | -42.1°C | 0% | 12hPa | 2.4V | 00:00:00 | 00:00:00 | 00:00:00 | |
| AA1-15 | 2026-09-01 12:46:40 | 54.87625 | 20.04094 | 346° | 93km/h | 1842m | 8m/s | -42.1°C | 0% | 12.1hPa | 2.4V | 00:00:00 | 00:00:00 | 00:00:00 | |
| AA1-15 | 2026-09-01 12:46:37 | 54.87542 | 20.04141 | 340° | 99km/h | 1793m | 8.1m/s | -42.1°C | 0% | 12.2hPa | 2.4V | 00:00:00 | 00:00:00 | 00:00:00 | |
| AA1-15 | 2026-09-01 12:46:33 | 54.87502 | 20.04173 | 334° | 97km/h | 1769m | 8m/s | -42.2°C | 0% | 12.2hPa | 2.4V | 00:00:00 | 00:00:00 | 00:00:00 | |
| AA1-15 | 2026-09-01 12:46:32 | 54.87481 | 20.04190 | 335° | 97km/h | 1757m | 8m/s | -42.2°C | 0% | 12.2hPa | 2.4V | 00:00:00 | 00:00:00 | 00:00:00 | |
| AA1-15 | 2026-09-01 12:46:30 | 54.87433 | 20.04228 | 331° | 93km/h | 1746m | 8.1m/s | -42.4°C | 0% | 12.2hPa | 2.4V | 00:00:00 | 00:00:00 | 00:00:00 | |
| AA1-15 | 2026-09-01 12:46:26 | 54.87300 | 20.04358 | 322° | 95km/h | 1715m | 8.1m/s | -42.7°C | 0% | 12.3hPa | 2.4V | 00:00:00 | 00:00:00 | 00:00:00 | |
| AA1-15 | 2026-09-01 12:46:23 | 54.87261 | 20.04411 | 318° | 95km/h | 1707m | 8.1m/s | -42.8°C | 0% | 12.3hPa | 2.4V | 00:00:00 | 00:00:00 | 00:00:00 | |
| AA1-15 | 2026-09-01 12:46:21 | 54.87225 | 20.04467 | 316° | 93km/h | 1702m | 8.1m/s | -42.8°C | 0% | 12.4hPa | 2.4V | 00:00:00 | 00:00:00 | 00:00:00 | |
| AA1-15 | 2026-09-01 12:46:19 | 54.87191 | 20.04527 | 314° | 99km/h | 1699m | 8.2m/s | -42.9°C | 0% | 12.4hPa | 2.4V | 00:00:00 | 00:00:00 | 00:00:00 | |
| AA1-15 | 2026-09-01 12:46:18 | 54.87174 | 20.04558 | 311° | 97km/h | 1702m | 8.1m/s | -42.9°C | 0% | 12.4hPa | 2.4V | 00:00:00 | 00:00:00 | 00:00:00 | |
| AA1-15 | 2026-09-01 12:45:37 | 54.94741 | 19.91228 | 0° | 0km/h | 159087m | 0m/s | -43.5°C | 0% | 13hPa | 2.4V | 00:00:00 | 00:00:00 | 00:00:00 | |
| AA1-15 | 2026-09-01 12:45:17 | 54.94741 | 19.91228 | 0° | 0km/h | 159087m | 0m/s | -43.6°C | 0% | 13.2hPa | 2.4V | 00:00:00 | 00:00:00 | 00:00:00 | |
| AA1-15 | 2026-09-01 12:45:05 | 54.94741 | 19.91228 | 0° | 0km/h | 159087m | 0m/s | -43.7°C | 0% | 13.4hPa | 2.4V | 00:00:00 | 00:00:00 | 00:00:00 | |
| AA1-15 | 2026-09-01 12:44:54 | 54.94741 | 19.91228 | 0° | 0km/h | 159087m | 0m/s | -44°C | 0% | 13.5hPa | 2.4V | 00:00:00 | 00:00:00 | 00:00:00 | |
| AA1-15 | 2026-09-01 12:44:44 | 54.94741 | 19.91228 | 0° | 0km/h | 159087m | 0m/s | -44.3°C | 0% | 13.7hPa | 2.4V | 00:00:00 | 00:00:00 | 00:00:00 | |
| AA1-15 | 2026-09-01 12:44:33 | 54.94741 | 19.91228 | 0° | 0km/h | 159087m | 0m/s | -44.6°C | 0% | 13.8hPa | 2.4V | 00:00:00 | 00:00:00 | 00:00:00 | |
| AA1-15 | 2026-09-01 12:44:23 | 54.94741 | 19.91228 | 0° | 0km/h | 159087m | 0m/s | -45°C | 0% | 13.9hPa | 2.4V | 00:00:00 | 00:00:00 | 00:00:00 | |
| AA1-15 | 2026-09-01 12:44:02 | 54.91339 | 22.60762 | 326° | 221km/h | 159087m | -24.6m/s | -45.6°C | 0% | 14.2hPa | 2.4V | 00:00:00 | 00:00:00 | 00:00:00 | |
| AA1-15 | 2026-09-01 12:43:51 | 54.90839 | 22.61350 | 285° | 95km/h | 1685m | 9.6m/s | -46°C | 0% | 14.3hPa | 2.4V | 00:00:00 | 00:00:00 | 00:00:00 | |
| AA1-15 | 2026-09-01 12:43:48 | 54.90850 | 22.61450 | 278° | 86km/h | 1598m | 10.9m/s | -46.1°C | 0% | 14.4hPa | 2.4V | 00:00:00 | 00:00:00 | 00:00:00 | |
| AA1-15 | 2026-09-01 12:43:46 | 54.90848 | 22.61494 | 279° | 95km/h | 1589m | 8.7m/s | -46.2°C | 0% | 14.4hPa | 2.4V | 00:00:00 | 00:00:00 | 00:00:00 | |
| AA1-15 | 2026-09-01 12:43:44 | 54.90837 | 22.61580 | 277° | 97km/h | 1572m | 8m/s | -46.3°C | 0% | 14.5hPa | 2.4V | 00:00:00 | 00:00:00 | 00:00:00 | |
| AA1-15 | 2026-09-01 12:43:42 | 54.90832 | 22.61669 | 275° | 95km/h | 1556m | 8m/s | -46.3°C | 0% | 14.5hPa | 2.4V | 00:00:00 | 00:00:00 | 00:00:00 | |
| AA1-15 | 2026-09-01 12:43:41 | 54.90834 | 22.61714 | 273° | 97km/h | 1544m | 8.2m/s | -46.3°C | 0% | 14.5hPa | 2.4V | 00:00:00 | 00:00:00 | 00:00:00 | |
| AA1-15 | 2026-09-01 12:43:40 | 54.90841 | 22.61848 | 268° | 95km/h | 1508m | 7.8m/s | -46.4°C | 0% | 14.5hPa | 2.4V | 00:00:00 | 00:00:00 | 00:00:00 | |
| AA1-15 | 2026-09-01 12:43:38 | 54.90841 | 22.61890 | 263° | 97km/h | 1498m | 8.9m/s | -46.6°C | 0% | 14.5hPa | 2.4V | 00:00:00 | 00:00:00 | 00:00:00 | |
| AA1-15 | 2026-09-01 12:43:36 | 54.90842 | 22.61932 | 262° | 97km/h | 1487m | 8.2m/s | -46.6°C | 0% | 14.6hPa | 2.4V | 00:00:00 | 00:00:00 | 00:00:00 | |
| AA1-15 | 2026-09-01 12:43:34 | 54.90856 | 22.62017 | 261° | 97km/h | 1472m | 8.2m/s | -46.6°C | 0% | 14.6hPa | 2.4V | 00:00:00 | 00:00:00 | 00:00:00 | |
| AA1-15 | 2026-09-01 12:43:31 | 54.90880 | 22.62145 | 255° | 97km/h | 1440m | 8.2m/s | -46.7°C | 0% | 14.6hPa | 2.4V | 00:00:00 | 00:00:00 | 00:00:00 | |
| AA1-15 | 2026-09-01 12:43:28 | 54.90902 | 22.62266 | 252° | 97km/h | 1405m | 8m/s | -46.7°C | 0% | 14.7hPa | 2.4V | 00:00:00 | 00:00:00 | 00:00:00 | |
| AA1-15 | 2026-09-01 12:43:27 | 54.90914 | 22.62305 | 250° | 97km/h | 1396m | 7.6m/s | -46.7°C | 0% | 14.7hPa | 2.4V | 00:00:00 | 00:00:00 | 00:00:00 | |
| AA1-15 | 2026-09-01 12:43:22 | 54.90975 | 22.62486 | 240° | 97km/h | 1335m | 8.3m/s | -46.8°C | 0% | 14.8hPa | 2.4V | 00:00:00 | 00:00:00 | 00:00:00 | |
| AA1-15 | 2026-09-01 12:43:21 | 54.90989 | 22.62520 | 240° | 95km/h | 1323m | 8.2m/s | -46.7°C | 0% | 14.8hPa | 2.4V | 00:00:00 | 00:00:00 | 00:00:00 | |
| AA1-15 | 2026-09-01 12:43:20 | 54.91004 | 22.62553 | 237° | 97km/h | 1311m | 8.3m/s | -46.8°C | 0% | 14.8hPa | 2.4V | 00:00:00 | 00:00:00 | 00:00:00 | |
| AA1-15 | 2026-09-01 12:43:19 | 54.91066 | 22.62679 | 236° | 95km/h | 1263m | 8.2m/s | -46.9°C | 0% | 14.8hPa | 2.4V | 00:00:00 | 00:00:00 | 00:00:00 | |
| AA1-15 | 2026-09-01 12:43:15 | 54.91081 | 22.62713 | 232° | 95km/h | 1252m | 7.9m/s | -46.9°C | 0% | 14.9hPa | 2.4V | 00:00:00 | 00:00:00 | 00:00:00 | |
| AA1-15 | 2026-09-01 12:43:14 | 54.91098 | 22.62747 | 229° | 97km/h | 1242m | 8m/s | -46.9°C | 0% | 14.9hPa | 2.4V | 00:00:00 | 00:00:00 | 00:00:00 | |
| AA1-15 | 2026-09-01 12:43:13 | 54.91116 | 22.62779 | 226° | 99km/h | 1233m | 8.2m/s | -46.9°C | 0% | 14.9hPa | 2.4V | 00:00:00 | 00:00:00 | 00:00:00 | |
| AA1-15 | 2026-09-01 12:43:12 | 54.91153 | 22.62843 | 224° | 99km/h | 1214m | 8.1m/s | -47°C | 0% | 14.9hPa | 2.4V | 00:00:00 | 00:00:00 | 00:00:00 | |
| AA1-15 | 2026-09-01 12:43:10 | 54.91172 | 22.62873 | 224° | 89km/h | 1205m | 8.1m/s | -47°C | 0% | 14.9hPa | 2.4V | 00:00:00 | 00:00:00 | 00:00:00 | |
| AA1-15 | 2026-09-01 12:43:08 | 54.91210 | 22.62931 | 219° | 99km/h | 1186m | 8.1m/s | -47°C | 0% | 15hPa | 2.4V | 00:00:00 | 00:00:00 | 00:00:00 | |
| AA1-15 | 2026-09-01 12:43:07 | 54.91229 | 22.62958 | 219° | 95km/h | 1176m | 8m/s | -47°C | 0% | 15hPa | 2.4V | 00:00:00 | 00:00:00 | 00:00:00 | |
| AA1-15 | 2026-09-01 12:43:05 | 54.91265 | 22.63011 | 215° | 97km/h | 1153m | 7.7m/s | -47°C | 0% | 15hPa | 2.4V | 00:00:00 | 00:00:00 | 00:00:00 | |
| AA1-15 | 2026-09-01 12:42:15 | 54.92685 | 19.02454 | 0° | 0km/h | 159087m | 0m/s | -47.8°C | 0% | 15.8hPa | 2.4V | 00:00:00 | 00:00:00 | 00:00:00 | |
| AA1-15 | 2026-09-01 12:42:04 | 54.92685 | 19.02454 | 0° | 0km/h | 159087m | 0m/s | -47.9°C | 0% | 16.1hPa | 2.4V | 00:00:00 | 00:00:00 | 00:00:00 | |
| AA1-15 | 2026-09-01 12:41:42 | 54.92685 | 19.02454 | 0° | 0km/h | 159087m | 0m/s | -47.7°C | 0% | 16.4hPa | 2.4V | 00:00:00 | 00:00:00 | 00:00:00 | |
| AA1-15 | 2026-09-01 12:41:21 | 54.92685 | 19.02454 | 0° | 0km/h | 159087m | 0m/s | -48.4°C | 0% | 16.8hPa | 2.4V | 00:00:00 | 00:00:00 | 00:00:00 | |
| AA1-15 | 2026-09-01 12:41:00 | 54.92685 | 19.02454 | 0° | 0km/h | 159087m | 0m/s | -48.5°C | 0% | 17.1hPa | 2.4V | 00:00:00 | 00:00:00 | 00:00:00 | |
| AA1-15 | 2026-09-01 12:40:49 | 54.92685 | 19.02454 | 0° | 0km/h | 159087m | 0m/s | -48.4°C | 0% | 17.3hPa | 2.4V | 00:00:00 | 00:00:00 | 00:00:00 | |
| AA1-15 | 2026-09-01 12:40:31 | 54.92685 | 19.02454 | 0° | 0km/h | 159087m | 0m/s | -48°C | 0% | 17.7hPa | 2.4V | 00:00:00 | 00:00:00 | 00:00:00 | |
| AA1-15 | 2026-09-01 12:40:20 | 54.92685 | 19.02454 | 0° | 0km/h | 159087m | 0m/s | -47.9°C | 0% | 17.9hPa | 2.4V | 00:00:00 | 00:00:00 | 00:00:00 | |
| AA1-15 | 2026-09-01 12:40:09 | 54.92685 | 19.02454 | 0° | 0km/h | 159087m | 0m/s | -47.8°C | 0% | 18.1hPa | 2.4V | 00:00:00 | 00:00:00 | 00:00:00 | |
| AA1-15 | 2026-09-01 12:39:58 | 54.92685 | 19.02454 | 0° | 0km/h | 159087m | 0m/s | -47.9°C | 0% | 18.3hPa | 2.4V | 00:00:00 | 00:00:00 | 00:00:00 | |
| AA1-15 | 2026-09-01 12:39:48 | 54.92685 | 19.02454 | 0° | 0km/h | 159087m | 0m/s | -48.1°C | 0% | 18.4hPa | 2.4V | 00:00:00 | 00:00:00 | 00:00:00 | |
| AA1-15 | 2026-09-01 12:39:25 | 54.92685 | 19.02454 | 0° | 0km/h | 159087m | 0m/s | -48.4°C | 0% | 18.9hPa | 2.4V | 00:00:00 | 00:00:00 | 00:00:00 | |
| AA1-15 | 2026-09-01 12:39:04 | 55.08221 | 19.72854 | 320° | 22km/h | 159087m | 7.6m/s | -48.2°C | 0% | 19.2hPa | 2.4V | 00:00:00 | 00:00:00 | 00:00:00 | |
| AA1-15 | 2026-09-01 12:38:36 | 55.08202 | 19.73018 | 270° | 16km/h | 2620m | 8.1m/s | -47.8°C | 0% | 19.8hPa | 2.4V | 00:00:00 | 00:00:00 | 00:00:00 | |
| AA1-15 | 2026-09-01 12:38:27 | 55.08224 | 19.73075 | 269° | 13km/h | 2524m | 8.1m/s | -48°C | 0% | 19.9hPa | 2.4V | 00:00:00 | 00:00:00 | 00:00:00 | |
| AA1-15 | 2026-09-01 12:38:13 | 55.08228 | 19.73176 | 269° | 16km/h | 2491m | 8m/s | -48.3°C | 0% | 20.2hPa | 2.4V | 00:00:00 | 00:00:00 | 00:00:00 | |
| AA1-15 | 2026-09-01 12:38:03 | 55.08237 | 19.73299 | 268° | 13km/h | 2493m | 8.2m/s | -48.4°C | 0% | 20.4hPa | 2.4V | 00:00:00 | 00:00:00 | 00:00:00 | |
| AA1-15 | 2026-09-01 12:37:54 | 55.08202 | 19.73339 | 271° | 15km/h | 2419m | 8m/s | -48.8°C | 0% | 20.6hPa | 2.4V | 00:00:00 | 00:00:00 | 00:00:00 | |
| AA1-15 | 2026-09-01 12:37:43 | 55.08217 | 19.73351 | 208° | 15km/h | 2260m | 14.7m/s | -49.1°C | 0% | 20.8hPa | 2.4V | 00:00:00 | 00:00:00 | 00:00:00 | |
| AA1-15 | 2026-09-01 12:37:32 | 55.08184 | 19.73435 | 268° | 13km/h | 2136m | 8.1m/s | -49.1°C | 0% | 21.1hPa | 2.4V | 00:00:00 | 00:00:00 | 00:00:00 | |
| AA1-15 | 2026-09-01 12:37:20 | 55.08125 | 19.73518 | 271° | 16km/h | 1996m | 8.2m/s | -49°C | 0% | 21.3hPa | 2.4V | 00:00:00 | 00:00:00 | 00:00:00 | |
| AA1-15 | 2026-09-01 12:37:15 | 55.08125 | 19.73554 | 274° | 18km/h | 1951m | 8.7m/s | -48.9°C | 0% | 21.4hPa | 2.4V | 00:00:00 | 00:00:00 | 00:00:00 | |
| AA1-15 | 2026-09-01 12:37:14 | 55.08131 | 19.73564 | 273° | 13km/h | 1934m | 8.1m/s | -48.9°C | 0% | 21.4hPa | 2.4V | 00:00:00 | 00:00:00 | 00:00:00 | |
| AA1-15 | 2026-09-01 12:37:12 | 55.08138 | 19.73567 | 272° | 13km/h | 1921m | 8.2m/s | -48.9°C | 0% | 21.4hPa | 2.4V | 00:00:00 | 00:00:00 | 00:00:00 | |
| AA1-15 | 2026-09-01 12:37:09 | 55.08149 | 19.73595 | 270° | 13km/h | 1889m | 8.5m/s | -49°C | 0% | 21.5hPa | 2.4V | 00:00:00 | 00:00:00 | 00:00:00 | |
| AA1-15 | 2026-09-01 12:37:04 | 55.08167 | 19.73617 | 272° | 13km/h | 1851m | 8.2m/s | -49.2°C | 0% | 21.6hPa | 2.5V | 00:00:00 | 00:00:00 | 00:00:00 | |
| AA1-15 | 2026-09-01 12:37:03 | 55.08180 | 19.73623 | 271° | 15km/h | 1832m | 8.1m/s | -49.1°C | 0% | 21.6hPa | 2.4V | 00:00:00 | 00:00:00 | 00:00:00 | |
| AA1-15 | 2026-09-01 12:37:01 | 55.08181 | 19.73631 | 268° | 16km/h | 1832m | 8.5m/s | -49.2°C | 0% | 21.7hPa | 2.4V | 00:00:00 | 00:00:00 | 00:00:00 | |
| AA1-15 | 2026-09-01 12:36:55 | 55.08186 | 19.73673 | 270° | 13km/h | 1783m | 8m/s | -49.4°C | 0% | 21.8hPa | 2.4V | 00:00:00 | 00:00:00 | 00:00:00 | |
| AA1-15 | 2026-09-01 12:36:53 | 55.08187 | 19.73678 | 270° | 15km/h | 1773m | 8.1m/s | -49.3°C | 0% | 21.9hPa | 2.4V | 00:00:00 | 00:00:00 | 00:00:00 | |
| AA1-15 | 2026-09-01 12:36:49 | 55.08191 | 19.73699 | 271° | 15km/h | 1739m | 8m/s | -49.4°C | 0% | 21.9hPa | 2.4V | 00:00:00 | 00:00:00 | 00:00:00 | |
| AA1-15 | 2026-09-01 12:36:48 | 55.08190 | 19.73707 | 280° | 22km/h | 1732m | 7.1m/s | -49.4°C | 0% | 21.9hPa | 2.4V | 00:00:00 | 00:00:00 | 00:00:00 | |
| AA1-15 | 2026-09-01 12:36:47 | 55.08190 | 19.73773 | 261° | 97km/h | 1715m | 8.1m/s | -49.3°C | 0% | 22hPa | 2.4V | 00:00:00 | 00:00:00 | 00:00:00 | |
| AA1-15 | 2026-09-01 12:36:44 | 55.08198 | 19.73850 | 248° | 95km/h | 1686m | 8.1m/s | -49.3°C | 0% | 22hPa | 2.4V | 00:00:00 | 00:00:00 | 00:00:00 | |
| AA1-15 | 2026-09-01 12:36:40 | 55.08251 | 19.73973 | 225° | 93km/h | 1614m | 8m/s | -49.2°C | 0% | 22.1hPa | 2.5V | 00:00:00 | 00:00:00 | 00:00:00 | |
| AA1-15 | 2026-09-01 12:36:39 | 55.08275 | 19.73992 | 219° | 95km/h | 1593m | 8.1m/s | -49.3°C | 0% | 22.2hPa | 2.5V | 00:00:00 | 00:00:00 | 00:00:00 | |
| AA1-15 | 2026-09-01 12:36:38 | 55.08330 | 19.74042 | 200° | 97km/h | 1551m | 9m/s | -49.2°C | 0% | 22.2hPa | 2.5V | 00:00:00 | 00:00:00 | 00:00:00 | |
| AA1-15 | 2026-09-01 12:36:37 | 55.08349 | 19.74058 | 194° | 97km/h | 1542m | 8.3m/s | -49.3°C | 0% | 22.2hPa | 2.5V | 00:00:00 | 00:00:00 | 00:00:00 | |
| AA1-15 | 2026-09-01 12:36:34 | 55.08373 | 19.74072 | 189° | 97km/h | 1540m | 8m/s | -49.2°C | 0% | 22.2hPa | 2.5V | 00:00:00 | 00:00:00 | 00:00:00 | |
| AA1-15 | 2026-09-01 12:36:33 | 55.08391 | 19.74079 | 181° | 100km/h | 1541m | 8.1m/s | -49.2°C | 0% | 22.3hPa | 2.5V | 00:00:00 | 00:00:00 | 00:00:00 | |
| AA1-15 | 2026-09-01 12:36:32 | 55.08420 | 19.74078 | 176° | 95km/h | 1530m | 8.1m/s | -49.2°C | 0% | 22.3hPa | 2.5V | 00:00:00 | 00:00:00 | 00:00:00 | |
| AA1-15 | 2026-09-01 12:36:28 | 55.08534 | 19.74025 | 151° | 93km/h | 1490m | 8m/s | -49.1°C | 0% | 22.4hPa | 2.5V | 00:00:00 | 00:00:00 | 00:00:00 | |
| AA1-15 | 2026-09-01 12:36:26 | 55.08602 | 19.73885 | 118° | 97km/h | 1475m | 8.1m/s | -49.1°C | 0% | 22.5hPa | 2.4V | 00:00:00 | 00:00:00 | 00:00:00 | |
| AA1-15 | 2026-09-01 12:36:22 | 55.08621 | 19.73844 | 115° | 95km/h | 1464m | 7.9m/s | -49.1°C | 0% | 22.5hPa | 2.4V | 00:00:00 | 00:00:00 | 00:00:00 | |
| AA1-15 | 2026-09-01 12:36:21 | 55.08629 | 19.73772 | 105° | 99km/h | 1465m | 8.1m/s | -49.1°C | 0% | 22.6hPa | 2.4V | 00:00:00 | 00:00:00 | 00:00:00 | |
| AA1-15 | 2026-09-01 12:36:09 | 54.82723 | 22.16752 | 0° | 0km/h | 159087m | 0m/s | -48.9°C | 0% | 22.8hPa | 2.5V | 00:00:00 | 00:00:00 | 00:00:00 | |
| AA1-15 | 2026-09-01 12:35:37 | 54.82786 | 22.16984 | 275° | 15km/h | 159087m | 8.3m/s | -48.8°C | 0% | 23.6hPa | 2.5V | 00:00:00 | 00:00:00 | 00:00:00 | |
| AA1-15 | 2026-09-01 12:35:26 | 54.82779 | 22.17046 | 284° | 13km/h | 1987m | 10.5m/s | -49.1°C | 0% | 23.8hPa | 2.5V | 00:00:00 | 00:00:00 | 00:00:00 | |
| AA1-15 | 2026-09-01 12:35:25 | 54.82775 | 22.17054 | 284° | 11km/h | 1977m | 13.6m/s | -49.1°C | 0% | 23.8hPa | 2.5V | 00:00:00 | 00:00:00 | 00:00:00 | |
| AA1-15 | 2026-09-01 12:35:24 | 54.82773 | 22.17061 | 293° | 9km/h | 1970m | 14.2m/s | -49.1°C | 0% | 23.9hPa | 2.5V | 00:00:00 | 00:00:00 | 00:00:00 | |
| AA1-15 | 2026-09-01 12:35:21 | 54.82752 | 22.17091 | 273° | 15km/h | 1958m | 8.5m/s | -49.1°C | 0% | 23.9hPa | 2.5V | 00:00:00 | 00:00:00 | 00:00:00 | |
| AA1-15 | 2026-09-01 12:35:18 | 54.82729 | 22.17110 | 280° | 15km/h | 1933m | 7.9m/s | -49.1°C | 0% | 24hPa | 2.5V | 00:00:00 | 00:00:00 | 00:00:00 | |
| AA1-15 | 2026-09-01 12:35:16 | 54.82721 | 22.17130 | 273° | 15km/h | 1935m | 7.5m/s | -49.1°C | 0% | 24hPa | 2.5V | 00:00:00 | 00:00:00 | 00:00:00 | |
| AA1-15 | 2026-09-01 12:35:14 | 54.82722 | 22.17142 | 270° | 13km/h | 1923m | 7.9m/s | -49.1°C | 0% | 24.1hPa | 2.5V | 00:00:00 | 00:00:00 | 00:00:00 | |
| AA1-15 | 2026-09-01 12:35:13 | 54.82722 | 22.17148 | 272° | 13km/h | 1915m | 8.7m/s | -49.2°C | 0% | 24.1hPa | 2.5V | 00:00:00 | 00:00:00 | 00:00:00 | |
| AA1-15 | 2026-09-01 12:35:07 | 54.92065 | 19.89643 | 0° | 0km/h | 159087m | 0m/s | -49.3°C | 0% | 24.2hPa | 2.5V | 00:00:00 | 00:00:00 | 00:00:00 | |
| AA1-15 | 2026-09-01 12:34:56 | 54.92068 | 19.89625 | 102° | 4km/h | 159087m | 6.2m/s | -49.6°C | 0% | 24.5hPa | 2.5V | 00:00:00 | 00:00:00 | 00:00:00 | |
| AA1-15 | 2026-09-01 12:34:45 | 54.92065 | 19.89678 | 270° | 16km/h | 2647m | 8.1m/s | -49.7°C | 0% | 24.7hPa | 2.5V | 00:00:00 | 00:00:00 | 00:00:00 | |
| AA1-15 | 2026-09-01 12:34:35 | 54.92066 | 19.89735 | 270° | 15km/h | 2564m | 8m/s | -49.8°C | 0% | 25hPa | 2.5V | 00:00:00 | 00:00:00 | 00:00:00 | |
| AA1-15 | 2026-09-01 12:34:24 | 54.92069 | 19.89802 | 271° | 15km/h | 2465m | 8m/s | -49.7°C | 0% | 25.2hPa | 2.5V | 00:00:00 | 00:00:00 | 00:00:00 | |
| AA1-15 | 2026-09-01 12:34:13 | 54.92075 | 19.89861 | 270° | 16km/h | 2376m | 8.1m/s | -49.6°C | 0% | 25.5hPa | 2.5V | 00:00:00 | 00:00:00 | 00:00:00 | |
| AA1-15 | 2026-09-01 12:34:01 | 54.92086 | 19.89935 | 269° | 15km/h | 2289m | 8m/s | -49.4°C | 0% | 25.8hPa | 2.5V | 00:00:00 | 00:00:00 | 00:00:00 | |
| AA1-15 | 2026-09-01 12:33:51 | 54.92090 | 19.89996 | 270° | 13km/h | 2208m | 8.3m/s | -49.3°C | 0% | 26hPa | 2.5V | 00:00:00 | 00:00:00 | 00:00:00 | |
| AA1-15 | 2026-09-01 12:33:40 | 54.92078 | 19.90081 | 269° | 15km/h | 2153m | 8m/s | -49.5°C | 0% | 26.2hPa | 2.5V | 00:00:00 | 00:00:00 | 00:00:00 | |
| AA1-15 | 2026-09-01 12:33:29 | 54.92074 | 19.90151 | 270° | 16km/h | 2100m | 8m/s | -49.8°C | 0% | 26.5hPa | 2.5V | 00:00:00 | 00:00:00 | 00:00:00 | |
| AA1-15 | 2026-09-01 12:33:19 | 54.92078 | 19.90202 | 270° | 13km/h | 2039m | 7.9m/s | -49.8°C | 0% | 26.7hPa | 2.5V | 00:00:00 | 00:00:00 | 00:00:00 | |
| AA1-15 | 2026-09-01 12:33:03 | 54.92087 | 19.90293 | 271° | 15km/h | 1933m | 8m/s | -49.6°C | 0% | 27.1hPa | 2.5V | 00:00:00 | 00:00:00 | 00:00:00 | |
| AA1-15 | 2026-09-01 12:33:01 | 54.92099 | 19.90309 | 270° | 13km/h | 1887m | 8m/s | -49.6°C | 0% | 27.2hPa | 2.5V | 00:00:00 | 00:00:00 | 00:00:00 | |
| AA1-15 | 2026-09-01 12:32:53 | 54.92093 | 19.90361 | 270° | 16km/h | 1774m | 8.8m/s | -49.6°C | 0% | 27.4hPa | 2.5V | 00:00:00 | 00:00:00 | 00:00:00 | |
| AA1-15 | 2026-09-01 12:32:50 | 54.92089 | 19.90375 | 279° | 15km/h | 1749m | 10.8m/s | -49.6°C | 0% | 27.4hPa | 2.5V | 00:00:00 | 00:00:00 | 00:00:00 | |
| AA1-15 | 2026-09-01 12:32:47 | 54.92103 | 19.90434 | 260° | 93km/h | 1712m | 8.4m/s | -49.5°C | 0% | 27.5hPa | 2.5V | 00:00:00 | 00:00:00 | 00:00:00 | |
| AA1-15 | 2026-09-01 12:32:45 | 54.92115 | 19.90519 | 248° | 95km/h | 1701m | 8.2m/s | -49.5°C | 0% | 27.6hPa | 2.5V | 00:00:00 | 00:00:00 | 00:00:00 | |
| AA1-15 | 2026-09-01 12:32:43 | 54.92137 | 19.90595 | 238° | 95km/h | 1686m | 8.2m/s | -49.6°C | 0% | 27.6hPa | 2.5V | 00:00:00 | 00:00:00 | 00:00:00 | |
| AA1-15 | 2026-09-01 12:32:41 | 54.92195 | 19.90717 | 211° | 99km/h | 1652m | 8m/s | -49.6°C | 0% | 27.7hPa | 2.5V | 00:00:00 | 00:00:00 | 00:00:00 | |
| AA1-15 | 2026-09-01 12:32:35 | 54.92279 | 19.90776 | 189° | 95km/h | 1618m | 8.2m/s | -49.6°C | 0% | 27.8hPa | 2.5V | 00:00:00 | 00:00:00 | 00:00:00 | |
| AA1-15 | 2026-09-01 12:32:34 | 54.92299 | 19.90781 | 181° | 100km/h | 1611m | 8.2m/s | -49.5°C | 0% | 27.9hPa | 2.5V | 00:00:00 | 00:00:00 | 00:00:00 | |
| AA1-15 | 2026-09-01 12:32:32 | 54.92343 | 19.90778 | 171° | 95km/h | 1600m | 8.1m/s | -49.5°C | 0% | 27.9hPa | 2.5V | 00:00:00 | 00:00:00 | 00:00:00 | |
| AA1-15 | 2026-09-01 12:32:31 | 54.92364 | 19.90769 | 165° | 100km/h | 1591m | 8m/s | -49.5°C | 0% | 27.9hPa | 2.5V | 00:00:00 | 00:00:00 | 00:00:00 | |
| AA1-15 | 2026-09-01 12:32:30 | 54.92383 | 19.90757 | 159° | 99km/h | 1580m | 8.1m/s | -49.5°C | 0% | 27.9hPa | 2.5V | 00:00:00 | 00:00:00 | 00:00:00 | |
| AA1-15 | 2026-09-01 12:32:28 | 54.92427 | 19.90723 | 146° | 97km/h | 1570m | 8.2m/s | -49.5°C | 0% | 28hPa | 2.5V | 00:00:00 | 00:00:00 | 00:00:00 | |
| AA1-15 | 2026-09-01 12:32:27 | 54.92449 | 19.90699 | 140° | 99km/h | 1565m | 8.1m/s | -49.5°C | 0% | 28hPa | 2.5V | 00:00:00 | 00:00:00 | 00:00:00 | |
| AA1-15 | 2026-09-01 12:32:24 | 54.92517 | 19.90483 | 105° | 97km/h | 1513m | 8m/s | -49.4°C | 0% | 28.2hPa | 2.5V | 00:00:00 | 00:00:00 | 00:00:00 | |
| AA1-15 | 2026-09-01 12:32:23 | 54.92525 | 19.90399 | 94° | 95km/h | 1494m | 8m/s | -49.3°C | 0% | 28.2hPa | 2.5V | 00:00:00 | 00:00:00 | 00:00:00 | |
| AA1-15 | 2026-09-01 12:32:20 | 54.92526 | 19.90357 | 86° | 97km/h | 1486m | 8m/s | -49.3°C | 0% | 28.2hPa | 2.5V | 00:00:00 | 00:00:00 | 00:00:00 | |
| AA1-15 | 2026-09-01 12:32:17 | 54.92523 | 19.90314 | 78° | 99km/h | 1477m | 8.1m/s | -49.3°C | 0% | 28.3hPa | 2.5V | 00:00:00 | 00:00:00 | 00:00:00 | |
| AA1-15 | 2026-09-01 12:32:16 | 54.92517 | 19.90273 | 74° | 95km/h | 1468m | 8.1m/s | -49.3°C | 0% | 28.3hPa | 2.5V | 00:00:00 | 00:00:00 | 00:00:00 | |
| AA1-15 | 2026-09-01 12:32:15 | 54.92511 | 19.90233 | 70° | 95km/h | 1460m | 8.1m/s | -49.3°C | 0% | 28.3hPa | 2.5V | 00:00:00 | 00:00:00 | 00:00:00 | |
| AA1-15 | 2026-09-01 12:32:14 | 54.92502 | 19.90195 | 64° | 95km/h | 1450m | 10.5m/s | -49.3°C | 0% | 28.4hPa | 2.5V | 00:00:00 | 00:00:00 | 00:00:00 | |
| AA1-15 | 2026-09-01 12:32:12 | 54.92469 | 19.90129 | 48° | 93km/h | 1428m | 8.1m/s | -49.3°C | 0% | 28.4hPa | 2.5V | 00:00:00 | 00:00:00 | 00:00:00 | |
| AA1-15 | 2026-09-01 12:32:10 | 54.92365 | 19.90015 | 19° | 95km/h | 1375m | 8m/s | -49.1°C | 0% | 28.6hPa | 2.5V | 00:00:00 | 00:00:00 | 00:00:00 | |
| AA1-15 | 2026-09-01 12:32:08 | 54.92328 | 19.90001 | 13° | 97km/h | 1348m | 8.1m/s | -49°C | 0% | 28.6hPa | 2.5V | 00:00:00 | 00:00:00 | 00:00:00 | |
| AA1-15 | 2026-09-01 12:32:05 | 54.92291 | 19.89990 | 6° | 95km/h | 1321m | 9.2m/s | -49°C | 0% | 28.6hPa | 2.5V | 00:00:00 | 00:00:00 | 00:00:00 | |
| AA1-15 | 2026-09-01 12:32:03 | 54.92210 | 19.89988 | 0° | 93km/h | 1261m | 8m/s | -49°C | 0% | 28.6hPa | 2.5V | 00:00:00 | 00:00:00 | 00:00:00 | |
| AA1-15 | 2026-09-01 12:32:01 | 54.92131 | 19.89989 | 0° | 95km/h | 1200m | 7.9m/s | -48.9°C | 0% | 28.7hPa | 2.5V | 00:00:00 | 00:00:00 | 00:00:00 | |
| AA1-15 | 2026-09-01 12:32:00 | 54.92049 | 19.89989 | 0° | 100km/h | 1167m | 8m/s | -49°C | 0% | 28.8hPa | 2.5V | 00:00:00 | 00:00:00 | 00:00:00 | |
| AA1-15 | 2026-09-01 12:31:57 | 54.92019 | 19.89989 | 0° | 93km/h | 1154m | 8m/s | -49°C | 0% | 28.8hPa | 2.5V | 00:00:00 | 00:00:00 | 00:00:00 | |
| AA1-15 | 2026-09-01 12:31:53 | 54.91916 | 19.89989 | 0° | 95km/h | 1116m | 8.2m/s | -49.1°C | 0% | 28.9hPa | 2.5V | 00:00:00 | 00:00:00 | 00:00:00 | |
| AA1-15 | 2026-09-01 12:31:51 | 54.91870 | 19.89989 | 0° | 100km/h | 1103m | 8.1m/s | -49°C | 0% | 29hPa | 2.4V | 00:00:00 | 00:00:00 | 00:00:00 | |
| AA1-15 | 2026-09-01 12:31:50 | 54.91848 | 19.89988 | 0° | 95km/h | 1096m | 7.9m/s | -49.1°C | 0% | 29hPa | 2.4V | 00:00:00 | 00:00:00 | 00:00:00 | |
| AA1-15 | 2026-09-01 12:31:49 | 54.91826 | 19.89988 | 0° | 100km/h | 1090m | 8.1m/s | -49.1°C | 0% | 29hPa | 2.5V | 00:00:00 | 00:00:00 | 00:00:00 | |
| AA1-15 | 2026-09-01 12:31:45 | 54.91741 | 19.89986 | 6° | 97km/h | 1069m | 8m/s | -49.1°C | 0% | 29.1hPa | 2.5V | 00:00:00 | 00:00:00 | 00:00:00 | |
| AA1-15 | 2026-09-01 12:31:38 | 54.86320 | 22.48905 | 274° | 16km/h | 159087m | 7.9m/s | -49.1°C | 0% | 29.4hPa | 2.5V | 00:00:00 | 00:00:00 | 00:00:00 | |
| AA1-15 | 2026-09-01 12:31:27 | 54.86317 | 22.48979 | 274° | 16km/h | 1947m | 7.9m/s | -49.2°C | 0% | 29.7hPa | 2.4V | 00:00:00 | 00:00:00 | 00:00:00 | |
| AA1-15 | 2026-09-01 12:31:16 | 54.88285 | 20.04047 | 0° | 0km/h | 159087m | 0m/s | -49.4°C | 0% | 30hPa | 2.4V | 00:00:00 | 00:00:00 | 00:00:00 | |
| AA1-15 | 2026-09-01 12:31:06 | 54.88292 | 20.04056 | 220° | 11km/h | 159087m | 9.2m/s | -49.7°C | 0% | 30.3hPa | 2.4V | 00:00:00 | 00:00:00 | 00:00:00 | |
| AA1-15 | 2026-09-01 12:30:56 | 54.88311 | 20.04084 | 222° | 2km/h | 3047m | 9.2m/s | -49.7°C | 0% | 30.6hPa | 2.4V | 00:00:00 | 00:00:00 | 00:00:00 | |
| AA1-15 | 2026-09-01 12:30:42 | 54.88265 | 20.04091 | 1° | 16km/h | 2950m | 8m/s | -50.3°C | 0% | 30.9hPa | 2.3V | 00:00:00 | 00:00:00 | 00:00:00 | |
| AA1-15 | 2026-09-01 12:30:31 | 54.88225 | 20.04093 | 1° | 11km/h | 2850m | 8.2m/s | -50.2°C | 0% | 31.3hPa | 2.2V | 00:00:00 | 00:00:00 | 00:00:00 | |
| AA1-15 | 2026-09-01 12:30:21 | 54.88186 | 20.04102 | 0° | 11km/h | 2736m | 8m/s | -51°C | 0% | 31.7hPa | 2.2V | 00:00:00 | 00:00:00 | 00:00:00 | |
| AA1-15 | 2026-09-01 12:30:08 | 54.88166 | 20.04093 | 0° | 16km/h | 2679m | 8m/s | -51.5°C | 0% | 31.9hPa | 2.2V | 00:00:00 | 00:00:00 | 00:00:00 | |
| AA1-15 | 2026-09-01 12:29:57 | 54.88157 | 20.04083 | 360° | 16km/h | 2597m | 8m/s | -51.6°C | 0% | 32.3hPa | 2.2V | 00:00:00 | 00:00:00 | 00:00:00 | |
| AA1-15 | 2026-09-01 12:29:46 | 54.88112 | 20.04068 | 1° | 11km/h | 2509m | 8.1m/s | -51.8°C | 0% | 32.6hPa | 2.2V | 00:00:00 | 00:00:00 | 00:00:00 | |
| AA1-15 | 2026-09-01 12:29:35 | 54.88046 | 20.04078 | 1° | 11km/h | 2388m | 8.2m/s | -51.8°C | 0% | 32.9hPa | 2.2V | 00:00:00 | 00:00:00 | 00:00:00 | |
| AA1-15 | 2026-09-01 12:29:23 | 54.87983 | 20.04078 | 360° | 16km/h | 2303m | 8.1m/s | -51.7°C | 0% | 33.3hPa | 2.2V | 00:00:00 | 00:00:00 | 00:00:00 | |
| AA1-15 | 2026-09-01 12:29:12 | 54.87962 | 20.04075 | 0° | 18km/h | 2198m | 8m/s | -51.7°C | 0% | 33.6hPa | 2.2V | 00:00:00 | 00:00:00 | 00:00:00 | |
| AA1-15 | 2026-09-01 12:29:01 | 54.87968 | 20.04042 | 357° | 7km/h | 2078m | 9m/s | -52.1°C | 0% | 33.9hPa | 2.2V | 00:00:00 | 00:00:00 | 00:00:00 | |
| AA1-15 | 2026-09-01 12:28:46 | 54.87827 | 20.04065 | 358° | 93km/h | 1998m | 8.7m/s | -52.2°C | 0% | 34.4hPa | 2.2V | 00:00:00 | 00:00:00 | 00:00:00 | |
| AA1-15 | 2026-09-01 12:28:42 | 54.87723 | 20.04086 | 349° | 97km/h | 1969m | 8m/s | -52.3°C | 0% | 34.5hPa | 2.2V | 00:00:00 | 00:00:00 | 00:00:00 | |
| AA1-15 | 2026-09-01 12:28:41 | 54.87697 | 20.04095 | 347° | 91km/h | 1961m | 7.9m/s | -52.4°C | 0% | 34.5hPa | 2.2V | 00:00:00 | 00:00:00 | 00:00:00 | |
| AA1-15 | 2026-09-01 12:28:38 | 54.87626 | 20.04124 | 344° | 95km/h | 1934m | 7.9m/s | -52.7°C | 0% | 34.6hPa | 2.2V | 00:00:00 | 00:00:00 | 00:00:00 | |
| AA1-15 | 2026-09-01 12:28:37 | 54.87578 | 20.04150 | 341° | 97km/h | 1915m | 8.1m/s | -52.7°C | 0% | 34.7hPa | 2.2V | 00:00:00 | 00:00:00 | 00:00:00 | |
| AA1-15 | 2026-09-01 12:28:34 | 54.87532 | 20.04179 | 337° | 100km/h | 1896m | 8.2m/s | -52.7°C | 0% | 34.7hPa | 2.2V | 00:00:00 | 00:00:00 | 00:00:00 | |
| AA1-15 | 2026-09-01 12:28:32 | 54.87452 | 20.04236 | 334° | 99km/h | 1863m | 7.9m/s | -52.6°C | 0% | 34.8hPa | 2.2V | 00:00:00 | 00:00:00 | 00:00:00 | |
| AA1-15 | 2026-09-01 12:28:29 | 54.87404 | 20.04276 | 330° | 95km/h | 1842m | 8.1m/s | -52.6°C | 0% | 34.9hPa | 2.2V | 00:00:00 | 00:00:00 | 00:00:00 | |
| AA1-15 | 2026-09-01 12:28:27 | 54.87364 | 20.04319 | 327° | 95km/h | 1822m | 8.1m/s | -52.6°C | 0% | 35hPa | 2.2V | 00:00:00 | 00:00:00 | 00:00:00 | |
| AA1-15 | 2026-09-01 12:28:26 | 54.87343 | 20.04342 | 326° | 97km/h | 1812m | 8.1m/s | -52.6°C | 0% | 35hPa | 2.2V | 00:00:00 | 00:00:00 | 00:00:00 | |
| AA1-15 | 2026-09-01 12:28:24 | 54.87280 | 20.04418 | 319° | 93km/h | 1779m | 8m/s | -52.5°C | 0% | 35.1hPa | 2.2V | 00:00:00 | 00:00:00 | 00:00:00 | |
| AA1-15 | 2026-09-01 12:28:21 | 54.87244 | 20.04475 | 315° | 93km/h | 1760m | 7.9m/s | -52.5°C | 0% | 35.1hPa | 2.2V | 00:00:00 | 00:00:00 | 00:00:00 | |
| AA1-15 | 2026-09-01 12:28:19 | 54.87215 | 20.04534 | 311° | 93km/h | 1744m | 7.8m/s | -52.4°C | 0% | 35.2hPa | 2.2V | 00:00:00 | 00:00:00 | 00:00:00 | |
| AA1-15 | 2026-09-01 12:28:15 | 54.87153 | 20.04661 | 309° | 95km/h | 1708m | 8.2m/s | -52.5°C | 0% | 35.3hPa | 2.2V | 00:00:00 | 00:00:00 | 00:00:00 | |
| AA1-15 | 2026-09-01 12:28:12 | 54.87111 | 20.04763 | 303° | 95km/h | 1680m | 8.1m/s | -52.5°C | 0% | 35.4hPa | 2.2V | 00:00:00 | 00:00:00 | 00:00:00 | |
| AA1-15 | 2026-09-01 12:28:10 | 54.87085 | 20.04835 | 302° | 100km/h | 1663m | 8m/s | -52.4°C | 0% | 35.5hPa | 2.2V | 00:00:00 | 00:00:00 | 00:00:00 | |
| AA1-15 | 2026-09-01 12:28:08 | 54.87061 | 20.04910 | 297° | 93km/h | 1647m | 8.1m/s | -52.4°C | 0% | 35.6hPa | 2.2V | 00:00:00 | 00:00:00 | 00:00:00 | |
| AA1-15 | 2026-09-01 12:28:07 | 54.87051 | 20.04946 | 294° | 95km/h | 1638m | 7.9m/s | -52.4°C | 0% | 35.6hPa | 2.2V | 00:00:00 | 00:00:00 | 00:00:00 | |
| AA1-15 | 2026-09-01 12:28:06 | 54.87038 | 20.04985 | 294° | 99km/h | 1633m | 8m/s | -52.4°C | 0% | 35.6hPa | 2.2V | 00:00:00 | 00:00:00 | 00:00:00 | |
| AA1-15 | 2026-09-01 12:28:05 | 54.87029 | 20.05024 | 292° | 95km/h | 1625m | 8.1m/s | -52.3°C | 0% | 35.6hPa | 2.2V | 00:00:00 | 00:00:00 | 00:00:00 | |
| AA1-15 | 2026-09-01 12:28:03 | 54.87007 | 20.05141 | 287° | 95km/h | 1604m | 7.9m/s | -52.3°C | 0% | 35.8hPa | 2.2V | 00:00:00 | 00:00:00 | 00:00:00 | |
| AA1-15 | 2026-09-01 12:28:00 | 54.86998 | 20.05220 | 285° | 97km/h | 1589m | 8.1m/s | -52.3°C | 0% | 35.8hPa | 2.2V | 00:00:00 | 00:00:00 | 00:00:00 | |
| AA1-15 | 2026-09-01 12:27:59 | 54.86999 | 20.05259 | 282° | 95km/h | 1583m | 7.9m/s | -52.2°C | 0% | 35.9hPa | 2.2V | 00:00:00 | 00:00:00 | 00:00:00 | |
| AA1-15 | 2026-09-01 12:27:58 | 54.86997 | 20.05336 | 280° | 93km/h | 1568m | 8m/s | -52.2°C | 0% | 35.9hPa | 2.2V | 00:00:00 | 00:00:00 | 00:00:00 | |
| AA1-15 | 2026-09-01 12:27:57 | 54.86995 | 20.05376 | 281° | 95km/h | 1560m | 8.1m/s | -52.2°C | 0% | 35.9hPa | 2.2V | 00:00:00 | 00:00:00 | 00:00:00 | |
| AA1-15 | 2026-09-01 12:27:54 | 54.86985 | 20.05460 | 276° | 97km/h | 1537m | 8.1m/s | -52.2°C | 0% | 36hPa | 2.2V | 00:00:00 | 00:00:00 | 00:00:00 | |
| AA1-15 | 2026-09-01 12:27:53 | 54.86977 | 20.05502 | 276° | 97km/h | 1522m | 8m/s | -52.1°C | 0% | 36.1hPa | 2.2V | 00:00:00 | 00:00:00 | 00:00:00 | |
| AA1-15 | 2026-09-01 12:27:52 | 54.86968 | 20.05544 | 273° | 95km/h | 1505m | 8m/s | -52.2°C | 0% | 36.1hPa | 2.2V | 00:00:00 | 00:00:00 | 00:00:00 | |
| AA1-15 | 2026-09-01 12:27:50 | 54.86951 | 20.05629 | 267° | 99km/h | 1468m | 8m/s | -52.1°C | 0% | 36.1hPa | 2.2V | 00:00:00 | 00:00:00 | 00:00:00 | |
| AA1-15 | 2026-09-01 12:27:48 | 54.86945 | 20.05712 | 266° | 97km/h | 1432m | 8.1m/s | -52.1°C | 0% | 36.2hPa | 2.2V | 00:00:00 | 00:00:00 | 00:00:00 | |
| AA1-15 | 2026-09-01 12:27:47 | 54.86943 | 20.05796 | 264° | 97km/h | 1402m | 8.1m/s | -52°C | 0% | 36.3hPa | 2.2V | 00:00:00 | 00:00:00 | 00:00:00 | |
| AA1-15 | 2026-09-01 12:27:44 | 54.86949 | 20.05883 | 262° | 99km/h | 1383m | 8m/s | -51.9°C | 0% | 36.4hPa | 2.2V | 00:00:00 | 00:00:00 | 00:00:00 | |
| AA1-15 | 2026-09-01 12:27:42 | 54.86962 | 20.05970 | 256° | 97km/h | 1373m | 8m/s | -51.8°C | 0% | 36.4hPa | 2.2V | 00:00:00 | 00:00:00 | 00:00:00 | |
| AA1-15 | 2026-09-01 12:27:41 | 54.86979 | 20.06054 | 250° | 97km/h | 1361m | 8.1m/s | -51.8°C | 0% | 36.5hPa | 2.2V | 00:00:00 | 00:00:00 | 00:00:00 | |
| AA1-15 | 2026-09-01 12:27:38 | 54.86998 | 20.06138 | 252° | 97km/h | 1350m | 8.1m/s | -51.6°C | 0% | 36.5hPa | 2.2V | 00:00:00 | 00:00:00 | 00:00:00 | |
| AA1-15 | 2026-09-01 12:27:37 | 54.87009 | 20.06180 | 248° | 95km/h | 1346m | 7.9m/s | -51.7°C | 0% | 36.6hPa | 2.2V | 00:00:00 | 00:00:00 | 00:00:00 | |
| AA1-15 | 2026-09-01 12:27:35 | 54.87031 | 20.06261 | 247° | 95km/h | 1338m | 8.1m/s | -51.6°C | 0% | 36.6hPa | 2.2V | 00:00:00 | 00:00:00 | 00:00:00 | |
| AA1-15 | 2026-09-01 12:27:33 | 54.87049 | 20.06340 | 240° | 97km/h | 1323m | 7.9m/s | -51.6°C | 0% | 36.7hPa | 2.2V | 00:00:00 | 00:00:00 | 00:00:00 | |
| AA1-15 | 2026-09-01 12:27:32 | 54.87059 | 20.06377 | 240° | 93km/h | 1315m | 7.9m/s | -51.5°C | 0% | 36.8hPa | 2.2V | 00:00:00 | 00:00:00 | 00:00:00 | |
| AA1-15 | 2026-09-01 12:27:28 | 54.87122 | 20.06551 | 235° | 91km/h | 1273m | 8m/s | -51.4°C | 0% | 36.9hPa | 2.2V | 00:00:00 | 00:00:00 | 00:00:00 | |
| AA1-15 | 2026-09-01 12:27:26 | 54.87136 | 20.06583 | 233° | 95km/h | 1262m | 8.1m/s | -51.5°C | 0% | 37hPa | 2.2V | 00:00:00 | 00:00:00 | 00:00:00 | |
| AA1-15 | 2026-09-01 12:27:25 | 54.87169 | 20.06647 | 226° | 97km/h | 1244m | 7.7m/s | -51.5°C | 0% | 37hPa | 2.2V | 00:00:00 | 00:00:00 | 00:00:00 | |
| AA1-15 | 2026-09-01 12:27:23 | 54.87186 | 20.06678 | 226° | 95km/h | 1235m | 8m/s | -51.5°C | 0% | 37.1hPa | 2.2V | 00:00:00 | 00:00:00 | 00:00:00 | |
| AA1-15 | 2026-09-01 12:27:21 | 54.87221 | 20.06738 | 225° | 93km/h | 1217m | 7.9m/s | -51.5°C | 0% | 37.1hPa | 2.2V | 00:00:00 | 00:00:00 | 00:00:00 | |
| AA1-15 | 2026-09-01 12:27:18 | 54.87276 | 20.06822 | 219° | 95km/h | 1190m | 8m/s | -51.4°C | 0% | 37.2hPa | 2.2V | 00:00:00 | 00:00:00 | 00:00:00 | |
| AA1-15 | 2026-09-01 12:27:17 | 54.87295 | 20.06848 | 219° | 95km/h | 1180m | 8m/s | -51.4°C | 0% | 37.3hPa | 2.2V | 00:00:00 | 00:00:00 | 00:00:00 | |
| AA1-15 | 2026-09-01 12:27:16 | 54.87314 | 20.06874 | 215° | 95km/h | 1170m | 7.9m/s | -51.4°C | 0% | 37.3hPa | 2.2V | 00:00:00 | 00:00:00 | 00:00:00 | |
| AA1-15 | 2026-09-01 12:27:15 | 54.87377 | 20.06942 | 211° | 99km/h | 1142m | 8.1m/s | -51.3°C | 0% | 37.4hPa | 2.2V | 00:00:00 | 00:00:00 | 00:00:00 | |
| AA1-15 | 2026-09-01 12:27:13 | 54.87400 | 20.06962 | 209° | 93km/h | 1134m | 8m/s | -51.3°C | 0% | 37.5hPa | 2.2V | 00:00:00 | 00:00:00 | 00:00:00 | |
| AA1-15 | 2026-09-01 12:27:11 | 54.87424 | 20.06981 | 206° | 99km/h | 1127m | 8m/s | -51.3°C | 0% | 37.5hPa | 2.2V | 00:00:00 | 00:00:00 | 00:00:00 | |
| AA1-15 | 2026-09-01 12:27:09 | 54.87470 | 20.07018 | 204° | 95km/h | 1106m | 8.2m/s | -51.4°C | 0% | 37.6hPa | 2.2V | 00:00:00 | 00:00:00 | 00:00:00 | |
| AA1-15 | 2026-09-01 12:27:08 | 54.87517 | 20.07050 | 200° | 97km/h | 1084m | 8.1m/s | -51.4°C | 0% | 37.6hPa | 2.2V | 00:00:00 | 00:00:00 | 00:00:00 | |
| AA1-15 | 2026-09-01 12:27:05 | 54.87565 | 20.07078 | 198° | 95km/h | 1062m | 8.1m/s | -51.4°C | 0% | 37.7hPa | 2.2V | 00:00:00 | 00:00:00 | 00:00:00 | |
| AA1-15 | 2026-09-01 12:27:04 | 54.87614 | 20.07101 | 195° | 100km/h | 1042m | 8m/s | -51.4°C | 0% | 37.8hPa | 2.2V | 00:00:00 | 00:00:00 | 00:00:00 | |
| AA1-15 | 2026-09-01 12:27:02 | 54.87663 | 20.07121 | 193° | 97km/h | 1024m | 7.9m/s | -51.3°C | 0% | 37.9hPa | 2.2V | 00:00:00 | 00:00:00 | 00:00:00 | |
| AA1-15 | 2026-09-01 12:27:00 | 54.87687 | 20.07129 | 189° | 95km/h | 1016m | 8m/s | -51.3°C | 0% | 37.9hPa | 2.2V | 00:00:00 | 00:00:00 | 00:00:00 | |
| AA1-15 | 2026-09-01 12:26:59 | 54.87736 | 20.07142 | 187° | 95km/h | 999m | 8m/s | -51.2°C | 0% | 38hPa | 2.2V | 00:00:00 | 00:00:00 | 00:00:00 | |
| AA1-15 | 2026-09-01 12:26:57 | 54.87760 | 20.07146 | 186° | 95km/h | 990m | 8m/s | -51.2°C | 0% | 38hPa | 2.2V | 00:00:00 | 00:00:00 | 00:00:00 | |
| AA1-15 | 2026-09-01 12:26:56 | 54.87784 | 20.07150 | 184° | 95km/h | 981m | 7.9m/s | -51.2°C | 0% | 38hPa | 2.2V | 00:00:00 | 00:00:00 | 00:00:00 | |
| AA1-15 | 2026-09-01 12:26:55 | 54.87809 | 20.07153 | 183° | 93km/h | 972m | 7.8m/s | -51.2°C | 0% | 38.1hPa | 2.2V | 00:00:00 | 00:00:00 | 00:00:00 | |
| AA1-15 | 2026-09-01 12:26:52 | 54.87880 | 20.07154 | 177° | 95km/h | 951m | 8.2m/s | -51.2°C | 0% | 38.2hPa | 2.2V | 00:00:00 | 00:00:00 | 00:00:00 | |
| AA1-15 | 2026-09-01 12:26:51 | 54.87925 | 20.07147 | 175° | 100km/h | 937m | 8.3m/s | -51.1°C | 0% | 38.2hPa | 2.2V | 00:00:00 | 00:00:00 | 00:00:00 | |
| AA1-15 | 2026-09-01 12:26:48 | 54.87972 | 20.07135 | 170° | 97km/h | 924m | 8.1m/s | -51.1°C | 0% | 38.3hPa | 2.2V | 00:00:00 | 00:00:00 | 00:00:00 | |
| AA1-15 | 2026-09-01 12:26:46 | 54.88016 | 20.07117 | 167° | 99km/h | 913m | 8.1m/s | -51°C | 0% | 38.4hPa | 2.2V | 00:00:00 | 00:00:00 | 00:00:00 | |
| AA1-15 | 2026-09-01 12:26:45 | 54.88038 | 20.07107 | 166° | 93km/h | 907m | 8m/s | -51°C | 0% | 38.4hPa | 2.2V | 00:00:00 | 00:00:00 | 00:00:00 | |
| AA1-15 | 2026-09-01 12:26:42 | 54.88108 | 20.07072 | 162° | 95km/h | 880m | 8.1m/s | -50.9°C | 0% | 38.5hPa | 2.2V | 00:00:00 | 00:00:00 | 00:00:00 | |
| AA1-15 | 2026-09-01 12:26:41 | 54.88134 | 20.07058 | 161° | 95km/h | 873m | 8.7m/s | -50.9°C | 0% | 38.5hPa | 2.2V | 00:00:00 | 00:00:00 | 00:00:00 | |
| AA1-15 | 2026-09-01 12:26:40 | 54.88177 | 20.07024 | 155° | 95km/h | 855m | 7.9m/s | -50.9°C | 0% | 38.6hPa | 2.2V | 00:00:00 | 00:00:00 | 00:00:00 | |
| AA1-15 | 2026-09-01 12:26:37 | 54.88247 | 20.06968 | 153° | 99km/h | 828m | 8m/s | -50.8°C | 0% | 38.7hPa | 2.2V | 00:00:00 | 00:00:00 | 00:00:00 | |
| AA1-15 | 2026-09-01 12:26:15 | 54.88551 | 20.06364 | 119° | 97km/h | 604m | 8.1m/s | -50.6°C | 0% | 39.4hPa | 2.2V | 00:00:00 | 00:00:00 | 00:00:00 | |
| AA1-15 | 2026-09-01 12:26:12 | 54.88564 | 20.06248 | 118° | 97km/h | 575m | 8m/s | -50.5°C | 0% | 39.5hPa | 2.2V | 00:00:00 | 00:00:00 | 00:00:00 | |
| AA1-15 | 2026-09-01 12:26:08 | 54.88599 | 20.06046 | 107° | 95km/h | 525m | 7.8m/s | -50.5°C | 0% | 39.7hPa | 2.2V | 00:00:00 | 00:00:00 | 00:00:00 | |
| AA1-15 | 2026-09-01 12:26:07 | 54.88624 | 20.05972 | 105° | 97km/h | 522m | 8.1m/s | -50.5°C | 0% | 39.8hPa | 2.2V | 00:00:00 | 00:00:00 | 00:00:00 | |
| AA1-15 | 2026-09-01 12:26:04 | 54.88650 | 20.05938 | 101° | 99km/h | 524m | 8m/s | -50.4°C | 0% | 39.8hPa | 2.2V | 00:00:00 | 00:00:00 | 00:00:00 | |
| AA1-15 | 2026-09-01 12:26:03 | 54.88703 | 20.05915 | 102° | 95km/h | 538m | 8.4m/s | -50.5°C | 0% | 39.9hPa | 2.2V | 00:00:00 | 00:00:00 | 00:00:00 | |
| AA1-15 | 2026-09-01 12:25:59 | 54.88770 | 20.05578 | 0° | 0km/h | 159087m | 0m/s | -50.5°C | 0% | 40hPa | 2.2V | 00:00:00 | 00:00:00 | 00:00:00 | |
| AA1-15 | 2026-09-01 12:25:48 | 54.88705 | 20.05254 | 71° | 97km/h | 159087m | 7.9m/s | -50.6°C | 0% | 40.4hPa | 2.2V | 00:00:00 | 00:00:00 | 00:00:00 | |
| AA1-15 | 2026-09-01 12:25:24 | 54.95230 | 19.26013 | 0° | 0km/h | 159087m | 0m/s | -51°C | 0% | 41.3hPa | 2.2V | 00:00:00 | 00:00:00 | 00:00:00 | |
| AA1-15 | 2026-09-01 12:25:12 | 54.95230 | 19.26013 | 0° | 0km/h | 159087m | 0m/s | -50.8°C | 0% | 41.7hPa | 2.2V | 00:00:00 | 00:00:00 | 00:00:00 | |
| AA1-15 | 2026-09-01 12:24:58 | 54.95215 | 19.26118 | 284° | 42km/h | 159087m | 9.6m/s | -50.7°C | 0% | 42.1hPa | 2.2V | 00:00:00 | 00:00:00 | 00:00:00 | |
| AA1-15 | 2026-09-01 12:24:48 | 54.95199 | 19.26261 | 269° | 16km/h | 2622m | 8m/s | -50.5°C | 0% | 42.5hPa | 2.2V | 00:00:00 | 00:00:00 | 00:00:00 | |
| AA1-15 | 2026-09-01 12:24:37 | 54.95199 | 19.26336 | 270° | 15km/h | 2507m | 8.1m/s | -50.3°C | 0% | 42.9hPa | 2.2V | 00:00:00 | 00:00:00 | 00:00:00 | |
| AA1-15 | 2026-09-01 12:24:26 | 54.95195 | 19.26409 | 270° | 13km/h | 2398m | 8.1m/s | -50.2°C | 0% | 43.3hPa | 2.2V | 00:00:00 | 00:00:00 | 00:00:00 | |
| AA1-15 | 2026-09-01 12:24:13 | 54.95196 | 19.26491 | 270° | 16km/h | 2295m | 8m/s | -50°C | 0% | 43.7hPa | 2.2V | 00:00:00 | 00:00:00 | 00:00:00 | |
| AA1-15 | 2026-09-01 12:24:03 | 54.95198 | 19.26556 | 271° | 13km/h | 2207m | 8.2m/s | -50.1°C | 0% | 44.1hPa | 2.2V | 00:00:00 | 00:00:00 | 00:00:00 | |
| AA1-15 | 2026-09-01 12:23:52 | 54.95205 | 19.26637 | 271° | 16km/h | 2113m | 8.1m/s | -50.2°C | 0% | 44.5hPa | 2.2V | 00:00:00 | 00:00:00 | 00:00:00 | |
| AA1-15 | 2026-09-01 12:23:41 | 54.95208 | 19.26707 | 271° | 13km/h | 1997m | 8m/s | -50.6°C | 0% | 44.9hPa | 2.2V | 00:00:00 | 00:00:00 | 00:00:00 | |
| AA1-15 | 2026-09-01 12:23:38 | 54.95209 | 19.26714 | 271° | 16km/h | 1979m | 8m/s | -50.6°C | 0% | 45hPa | 2.2V | 00:00:00 | 00:00:00 | 00:00:00 | |
| AA1-15 | 2026-09-01 12:23:35 | 54.95210 | 19.26726 | 271° | 13km/h | 1957m | 8m/s | -50.8°C | 0% | 45.1hPa | 2.2V | 00:00:00 | 00:00:00 | 00:00:00 | |
| AA1-15 | 2026-09-01 12:23:31 | 54.95209 | 19.26748 | 272° | 13km/h | 1929m | 8m/s | -50.8°C | 0% | 45.2hPa | 2.2V | 00:00:00 | 00:00:00 | 00:00:00 | |
| AA1-15 | 2026-09-01 12:23:30 | 54.95209 | 19.26754 | 270° | 13km/h | 1922m | 8m/s | -50.9°C | 0% | 45.2hPa | 2.2V | 00:00:00 | 00:00:00 | 00:00:00 | |
| AA1-15 | 2026-09-01 12:23:28 | 54.95208 | 19.26766 | 270° | 13km/h | 1907m | 8m/s | -50.9°C | 0% | 45.3hPa | 2.2V | 00:00:00 | 00:00:00 | 00:00:00 | |
| AA1-15 | 2026-09-01 12:23:26 | 54.95204 | 19.26778 | 270° | 16km/h | 1898m | 7.9m/s | -51.1°C | 0% | 45.4hPa | 2.2V | 00:00:00 | 00:00:00 | 00:00:00 | |
| AA1-15 | 2026-09-01 12:23:24 | 54.95202 | 19.26790 | 270° | 15km/h | 1884m | 8m/s | -51.2°C | 0% | 45.4hPa | 2.2V | 00:00:00 | 00:00:00 | 00:00:00 | |
| AA1-15 | 2026-09-01 12:23:23 | 54.95202 | 19.26796 | 271° | 13km/h | 1877m | 7.9m/s | -51.2°C | 0% | 45.5hPa | 2.2V | 00:00:00 | 00:00:00 | 00:00:00 | |
| AA1-15 | 2026-09-01 12:23:21 | 54.95199 | 19.26808 | 270° | 16km/h | 1863m | 8.1m/s | -51.4°C | 0% | 45.6hPa | 2.2V | 00:00:00 | 00:00:00 | 00:00:00 | |
| AA1-15 | 2026-09-01 12:23:15 | 54.95190 | 19.26846 | 270° | 15km/h | 1832m | 8m/s | -51.7°C | 0% | 45.8hPa | 2.3V | 00:00:00 | 00:00:00 | 00:00:00 | |
| AA1-15 | 2026-09-01 12:23:11 | 54.95191 | 19.26872 | 270° | 13km/h | 1801m | 7.9m/s | -51.8°C | 0% | 46hPa | 2.3V | 00:00:00 | 00:00:00 | 00:00:00 | |
| AA1-15 | 2026-09-01 12:23:10 | 54.95191 | 19.26878 | 270° | 13km/h | 1792m | 8m/s | -51.8°C | 0% | 46hPa | 2.3V | 00:00:00 | 00:00:00 | 00:00:00 | |
| AA1-15 | 2026-09-01 12:23:07 | 54.95189 | 19.26895 | 269° | 16km/h | 1766m | 8.1m/s | -51.8°C | 0% | 46.1hPa | 2.3V | 00:00:00 | 00:00:00 | 00:00:00 | |
| AA1-15 | 2026-09-01 12:23:04 | 54.95184 | 19.26915 | 274° | 16km/h | 1742m | 6.8m/s | -51.8°C | 0% | 46.2hPa | 2.3V | 00:00:00 | 00:00:00 | 00:00:00 | |
| AA1-15 | 2026-09-01 12:22:47 | 54.95716 | 19.27281 | 0° | 0km/h | 159087m | 0m/s | -51.8°C | 0% | 46.9hPa | 2.4V | 00:00:00 | 00:00:00 | 00:00:00 | |
| AA1-15 | 2026-09-01 12:22:36 | 54.95716 | 19.27281 | 0° | 0km/h | 159087m | 0m/s | -51.7°C | 0% | 47.3hPa | 2.4V | 00:00:00 | 00:00:00 | 00:00:00 | |
| AA1-15 | 2026-09-01 12:22:23 | 54.95692 | 19.27167 | 69° | 91km/h | 159087m | 8m/s | -51.7°C | 0% | 47.8hPa | 2.4V | 00:00:00 | 00:00:00 | 00:00:00 | |
| AA1-15 | 2026-09-01 12:22:13 | 54.95600 | 19.26787 | 55° | 95km/h | 1381m | 8.1m/s | -51.7°C | 0% | 48.2hPa | 2.4V | 00:00:00 | 00:00:00 | 00:00:00 | |
| AA1-15 | 2026-09-01 12:22:08 | 54.95526 | 19.26680 | 30° | 97km/h | 1342m | 7.9m/s | -51.7°C | 0% | 48.4hPa | 2.4V | 00:00:00 | 00:00:00 | 00:00:00 | |
| AA1-15 | 2026-09-01 12:22:06 | 54.95481 | 19.26649 | 19° | 95km/h | 1324m | 8.2m/s | -51.8°C | 0% | 48.5hPa | 2.4V | 00:00:00 | 00:00:00 | 00:00:00 | |
| AA1-15 | 2026-09-01 12:22:05 | 54.95457 | 19.26640 | 13° | 97km/h | 1309m | 8.1m/s | -51.8°C | 0% | 48.5hPa | 2.4V | 00:00:00 | 00:00:00 | 00:00:00 | |
| AA1-15 | 2026-09-01 12:22:03 | 54.95416 | 19.26637 | 1° | 93km/h | 1263m | 8.2m/s | -51.9°C | 0% | 48.6hPa | 2.4V | 00:00:00 | 00:00:00 | 00:00:00 | |
| AA1-15 | 2026-09-01 12:21:56 | 54.53140 | 22.22123 | 0° | 0km/h | 159087m | 0m/s | -52°C | 0% | 48.9hPa | 2.4V | 00:00:00 | 00:00:00 | 00:00:00 | |
| AA1-15 | 2026-09-01 12:21:43 | 54.53140 | 22.22123 | 0° | 0km/h | 159087m | 0m/s | -51.9°C | 0% | 49.4hPa | 2.4V | 00:00:00 | 00:00:00 | 00:00:00 | |
| AA1-15 | 2026-09-01 12:21:32 | 54.53144 | 22.22159 | 259° | 15km/h | 159087m | 8.4m/s | -51.9°C | 0% | 49.8hPa | 2.4V | 00:00:00 | 00:00:00 | 00:00:00 | |
| AA1-15 | 2026-09-01 12:21:21 | 54.53153 | 22.22236 | 274° | 16km/h | 2006m | 9.8m/s | -51.8°C | 0% | 50.3hPa | 2.4V | 00:00:00 | 00:00:00 | 00:00:00 | |
| AA1-15 | 2026-09-01 12:21:05 | 55.08242 | 19.72886 | 0° | 0km/h | 159087m | 0m/s | -51.7°C | 0% | 51hPa | 2.5V | 00:00:00 | 00:00:00 | 00:00:00 | |
| AA1-15 | 2026-09-01 12:20:53 | 55.08214 | 19.72907 | 271° | 13km/h | 2678m | 8.1m/s | -51.8°C | 0% | 51.6hPa | 2.5V | 00:00:00 | 00:00:00 | 00:00:00 | |
| AA1-15 | 2026-09-01 12:20:42 | 55.08200 | 19.72983 | 269° | 16km/h | 2611m | 8m/s | -51.6°C | 0% | 52.1hPa | 2.5V | 00:00:00 | 00:00:00 | 00:00:00 | |
| AA1-15 | 2026-09-01 12:20:31 | 55.08213 | 19.73052 | 271° | 13km/h | 2526m | 8.2m/s | -51.8°C | 0% | 52.6hPa | 2.5V | 00:00:00 | 00:00:00 | 00:00:00 | |
| AA1-15 | 2026-09-01 12:20:20 | 55.08221 | 19.73106 | 271° | 13km/h | 2480m | 8.1m/s | -51.6°C | 0% | 53hPa | 2.5V | 00:00:00 | 00:00:00 | 00:00:00 | |
| AA1-15 | 2026-09-01 12:20:07 | 55.08234 | 19.73212 | 270° | 13km/h | 2378m | 8.1m/s | -51.3°C | 0% | 53.6hPa | 2.5V | 00:00:00 | 00:00:00 | 00:00:00 | |
| AA1-15 | 2026-09-01 12:19:55 | 55.08230 | 19.73288 | 271° | 16km/h | 2270m | 8.1m/s | -50.9°C | 0% | 54.1hPa | 2.5V | 00:00:00 | 00:00:00 | 00:00:00 | |
| AA1-15 | 2026-09-01 12:19:44 | 55.08208 | 19.73347 | 271° | 13km/h | 2169m | 8.1m/s | -50.7°C | 0% | 54.6hPa | 2.5V | 00:00:00 | 00:00:00 | 00:00:00 | |
| AA1-15 | 2026-09-01 12:19:33 | 55.08202 | 19.73413 | 271° | 16km/h | 2072m | 8.1m/s | -50.8°C | 0% | 55.1hPa | 2.5V | 00:00:00 | 00:00:00 | 00:00:00 | |
| AA1-15 | 2026-09-01 12:19:21 | 55.08204 | 19.73503 | 270° | 16km/h | 1956m | 8m/s | -50.7°C | 0% | 55.8hPa | 2.5V | 00:00:00 | 00:00:00 | 00:00:00 | |
| AA1-15 | 2026-09-01 12:19:19 | 55.08205 | 19.73509 | 270° | 13km/h | 1948m | 8m/s | -50.7°C | 0% | 55.8hPa | 2.5V | 00:00:00 | 00:00:00 | 00:00:00 | |
| AA1-15 | 2026-09-01 12:19:18 | 55.08205 | 19.73513 | 270° | 13km/h | 1939m | 8m/s | -50.7°C | 0% | 55.9hPa | 2.5V | 00:00:00 | 00:00:00 | 00:00:00 | |
| AA1-15 | 2026-09-01 12:19:16 | 55.08206 | 19.73518 | 269° | 15km/h | 1930m | 8m/s | -50.8°C | 0% | 55.9hPa | 2.5V | 00:00:00 | 00:00:00 | 00:00:00 | |
| AA1-15 | 2026-09-01 12:19:11 | 55.08203 | 19.73546 | 270° | 15km/h | 1904m | 8m/s | -50.7°C | 0% | 56.1hPa | 2.5V | 00:00:00 | 00:00:00 | 00:00:00 | |
| AA1-15 | 2026-09-01 12:19:08 | 55.08084 | 19.73545 | 269° | 15km/h | 1692m | 8.1m/s | -50.8°C | 0% | 56.3hPa | 2.5V | 00:00:00 | 00:00:00 | 00:00:00 | |
| AA1-15 | 2026-09-01 12:19:05 | 55.08065 | 19.73556 | 270° | 13km/h | 1656m | 7.9m/s | -50.7°C | 0% | 56.4hPa | 2.5V | 00:00:00 | 00:00:00 | 00:00:00 | |
| AA1-15 | 2026-09-01 12:19:01 | 55.07981 | 19.73567 | 273° | 13km/h | 1537m | 8.1m/s | -50.6°C | 0% | 56.6hPa | 2.5V | 00:00:00 | 00:00:00 | 00:00:00 | |
| AA1-15 | 2026-09-01 12:19:00 | 55.07980 | 19.73571 | 276° | 13km/h | 1532m | 8.2m/s | -50.6°C | 0% | 56.7hPa | 2.5V | 00:00:00 | 00:00:00 | 00:00:00 | |
| AA1-15 | 2026-09-01 12:18:58 | 55.07991 | 19.73582 | 277° | 16km/h | 1530m | 8.6m/s | -50.6°C | 0% | 56.8hPa | 2.5V | 00:00:00 | 00:00:00 | 00:00:00 | |
| AA1-15 | 2026-09-01 12:18:55 | 55.08144 | 19.73614 | 272° | 13km/h | 1596m | 8m/s | -50.5°C | 0% | 56.9hPa | 2.5V | 00:00:00 | 00:00:00 | 00:00:00 | |
| AA1-15 | 2026-09-01 12:18:51 | 54.82832 | 22.16543 | 291° | 2km/h | 159087m | 8m/s | -50.5°C | 0% | 57.1hPa | 2.5V | 00:00:00 | 00:00:00 | 00:00:00 | |
| AA1-15 | 2026-09-01 12:18:38 | 54.82817 | 22.16578 | 277° | 18km/h | 2869m | 9.5m/s | -50°C | 0% | 57.7hPa | 2.5V | 00:00:00 | 00:00:00 | 00:00:00 | |
| AA1-15 | 2026-09-01 12:18:28 | 54.82734 | 22.16662 | 273° | 15km/h | 2672m | 7.7m/s | -49.8°C | 0% | 58.2hPa | 2.5V | 00:00:00 | 00:00:00 | 00:00:00 | |
| AA1-15 | 2026-09-01 12:18:07 | 54.82567 | 22.16934 | 271° | 13km/h | 2405m | 7.7m/s | -49.4°C | 0% | 59.1hPa | 2.5V | 00:00:00 | 00:00:00 | 00:00:00 | |
| AA1-15 | 2026-09-01 12:17:57 | 55.08200 | 19.73336 | 0° | 93km/h | 159087m | 8.2m/s | -49.2°C | 0% | 59.7hPa | 2.5V | 00:00:00 | 00:00:00 | 00:00:00 | |
| AA1-15 | 2026-09-01 12:17:46 | 55.07935 | 19.73337 | 0° | 99km/h | 1101m | 8.8m/s | -49°C | 0% | 60.2hPa | 2.5V | 00:00:00 | 00:00:00 | 00:00:00 | |
| AA1-15 | 2026-09-01 12:17:46 | 55.07913 | 19.73335 | 8° | 99km/h | 1096m | 8.1m/s | -49°C | 0% | 60.2hPa | 2.5V | 00:00:00 | 00:00:00 | 00:00:00 | |
| AA1-15 | 2026-09-01 12:17:27 | 54.82719 | 22.17060 | 269° | 15km/h | 2408m | 9.6m/s | -49.7°C | 0% | 61.1hPa | 2.5V | 00:00:00 | 00:00:00 | 00:00:00 | |
| AA1-15 | 2026-09-01 12:17:16 | 54.82741 | 22.17129 | 274° | 15km/h | 2164m | 8.3m/s | -49.6°C | 0% | 61.7hPa | 2.5V | 00:00:00 | 00:00:00 | 00:00:00 | |
| AA1-15 | 2026-09-01 12:17:05 | 54.92046 | 19.89582 | 201° | 7km/h | 159087m | 7.4m/s | -49.7°C | 0% | 62.2hPa | 2.5V | 00:00:00 | 00:00:00 | 00:00:00 | |
| AA1-15 | 2026-09-01 12:16:53 | 54.92064 | 19.89598 | 270° | 16km/h | 2724m | 8.2m/s | -50°C | 0% | 62.8hPa | 2.5V | 00:00:00 | 00:00:00 | 00:00:00 | |
| AA1-15 | 2026-09-01 12:16:41 | 54.92068 | 19.89666 | 270° | 13km/h | 2626m | 8.1m/s | -49.6°C | 0% | 63.3hPa | 2.5V | 00:00:00 | 00:00:00 | 00:00:00 | |
| AA1-15 | 2026-09-01 12:16:31 | 54.92062 | 19.89739 | 269° | 13km/h | 2543m | 8.1m/s | -49.4°C | 0% | 64hPa | 2.5V | 00:00:00 | 00:00:00 | 00:00:00 | |
| AA1-15 | 2026-09-01 12:16:18 | 54.92063 | 19.89801 | 269° | 15km/h | 2460m | 8.1m/s | -49.6°C | 0% | 64.6hPa | 2.5V | 00:00:00 | 00:00:00 | 00:00:00 | |
| AA1-15 | 2026-09-01 12:16:07 | 54.92056 | 19.89878 | 271° | 16km/h | 2363m | 8m/s | -49.6°C | 0% | 65.1hPa | 2.5V | 00:00:00 | 00:00:00 | 00:00:00 | |
| AA1-15 | 2026-09-01 12:15:49 | 54.92060 | 19.89999 | 270° | 13km/h | 2197m | 7.9m/s | -49.8°C | 0% | 66.1hPa | 2.5V | 00:00:00 | 00:00:00 | 00:00:00 | |
| AA1-15 | 2026-09-01 12:15:35 | 54.92001 | 19.90119 | 271° | 16km/h | 1991m | 8.2m/s | -49.5°C | 0% | 67hPa | 2.5V | 00:00:00 | 00:00:00 | 00:00:00 | |
| AA1-15 | 2026-09-01 12:15:31 | 54.92001 | 19.90126 | 272° | 13km/h | 1977m | 8.2m/s | -49.5°C | 0% | 67.1hPa | 2.4V | 00:00:00 | 00:00:00 | 00:00:00 | |
| AA1-15 | 2026-09-01 12:15:27 | 54.92000 | 19.90138 | 276° | 13km/h | 1952m | 8.6m/s | -49.5°C | 0% | 67.2hPa | 2.4V | 00:00:00 | 00:00:00 | 00:00:00 | |
| AA1-15 | 2026-09-01 12:15:27 | 54.92001 | 19.90147 | 271° | 13km/h | 1933m | 8.2m/s | -49.4°C | 0% | 67.3hPa | 2.4V | 00:00:00 | 00:00:00 | 00:00:00 | |
| AA1-15 | 2026-09-01 12:15:24 | 54.92005 | 19.90165 | 274° | 13km/h | 1895m | 8.7m/s | -49.3°C | 0% | 67.5hPa | 2.4V | 00:00:00 | 00:00:00 | 00:00:00 | |
| AA1-15 | 2026-09-01 12:15:22 | 54.92001 | 19.90195 | 272° | 13km/h | 1868m | 8.1m/s | -49.7°C | 0% | 67.8hPa | 2.4V | 00:00:00 | 00:00:00 | 00:00:00 | |
| AA1-15 | 2026-09-01 12:15:17 | 54.92003 | 19.90209 | 271° | 13km/h | 1858m | 8.1m/s | -49.7°C | 0% | 67.9hPa | 2.4V | 00:00:00 | 00:00:00 | 00:00:00 | |
| AA1-15 | 2026-09-01 12:15:14 | 54.92007 | 19.90216 | 271° | 16km/h | 1852m | 8.1m/s | -49.7°C | 0% | 68hPa | 2.4V | 00:00:00 | 00:00:00 | 00:00:00 | |
| AA1-15 | 2026-09-01 12:15:11 | 54.91984 | 19.90241 | 269° | 15km/h | 1778m | 8.1m/s | -49.5°C | 0% | 68.2hPa | 2.4V | 00:00:00 | 00:00:00 | 00:00:00 | |
| AA1-15 | 2026-09-01 12:15:11 | 54.91984 | 19.90247 | 271° | 13km/h | 1769m | 8.1m/s | -49.5°C | 0% | 68.3hPa | 2.4V | 00:00:00 | 00:00:00 | 00:00:00 | |
| AA1-15 | 2026-09-01 12:15:07 | 54.91983 | 19.90254 | 272° | 15km/h | 1761m | 8.3m/s | -49.5°C | 0% | 68.3hPa | 2.4V | 00:00:00 | 00:00:00 | 00:00:00 | |
| AA1-15 | 2026-09-01 12:15:06 | 54.91985 | 19.90272 | 271° | 13km/h | 1734m | 8.1m/s | -49.4°C | 0% | 68.5hPa | 2.4V | 00:00:00 | 00:00:00 | 00:00:00 | |
| AA1-15 | 2026-09-01 12:15:05 | 54.91986 | 19.90278 | 272° | 15km/h | 1725m | 8.2m/s | -49.4°C | 0% | 68.5hPa | 2.4V | 00:00:00 | 00:00:00 | 00:00:00 | |
| AA1-15 | 2026-09-01 12:15:02 | 54.91991 | 19.90290 | 270° | 15km/h | 1708m | 8.4m/s | -49.4°C | 0% | 68.7hPa | 2.4V | 00:00:00 | 00:00:00 | 00:00:00 | |
| AA1-15 | 2026-09-01 12:15:00 | 54.91997 | 19.90309 | 272° | 16km/h | 1680m | 8.1m/s | -49.3°C | 0% | 68.8hPa | 2.4V | 00:00:00 | 00:00:00 | 00:00:00 | |
| AA1-15 | 2026-09-01 12:14:58 | 54.91994 | 19.90315 | 270° | 13km/h | 1672m | 8.1m/s | -49.4°C | 0% | 68.9hPa | 2.3V | 00:00:00 | 00:00:00 | 00:00:00 | |
| AA1-15 | 2026-09-01 12:14:55 | 54.91980 | 19.90329 | 272° | 13km/h | 1650m | 8.1m/s | -49.4°C | 0% | 69hPa | 2.3V | 00:00:00 | 00:00:00 | 00:00:00 | |
| AA1-15 | 2026-09-01 12:14:54 | 54.91980 | 19.90336 | 270° | 16km/h | 1641m | 8m/s | -49.4°C | 0% | 69hPa | 2.3V | 00:00:00 | 00:00:00 | 00:00:00 | |
| AA1-15 | 2026-09-01 12:14:53 | 54.91981 | 19.90355 | 271° | 13km/h | 1615m | 8m/s | -49.4°C | 0% | 69.2hPa | 2.3V | 00:00:00 | 00:00:00 | 00:00:00 | |
| AA1-15 | 2026-09-01 12:14:51 | 54.91981 | 19.90361 | 270° | 15km/h | 1606m | 8m/s | -49.5°C | 0% | 69.3hPa | 2.3V | 00:00:00 | 00:00:00 | 00:00:00 | |
| AA1-15 | 2026-09-01 12:14:49 | 54.91981 | 19.90372 | 276° | 18km/h | 1590m | 7.3m/s | -49.6°C | 0% | 69.4hPa | 2.3V | 00:00:00 | 00:00:00 | 00:00:00 | |
| AA1-15 | 2026-09-01 12:14:47 | 54.91984 | 19.90397 | 269° | 95km/h | 1586m | 7.9m/s | -49.7°C | 0% | 69.4hPa | 2.3V | 00:00:00 | 00:00:00 | 00:00:00 | |
| AA1-15 | 2026-09-01 12:14:45 | 54.91992 | 19.90476 | 252° | 100km/h | 1574m | 7.8m/s | -49.8°C | 0% | 69.5hPa | 2.3V | 00:00:00 | 00:00:00 | 00:00:00 | |
| AA1-15 | 2026-09-01 12:14:44 | 54.92053 | 19.90630 | 232° | 97km/h | 1562m | 6.9m/s | -49.9°C | 0% | 69.8hPa | 2.3V | 00:00:00 | 00:00:00 | 00:00:00 | |
| AA1-15 | 2026-09-01 12:14:43 | 54.92074 | 19.90660 | 226° | 97km/h | 1550m | 7.9m/s | -49.9°C | 0% | 69.8hPa | 2.3V | 00:00:00 | 00:00:00 | 00:00:00 | |
| AA1-15 | 2026-09-01 12:14:33 | 54.77044 | 22.70906 | 0° | 0km/h | 159087m | 0m/s | -49.8°C | 0% | 70.3hPa | 2.3V | 00:00:00 | 00:00:00 | 00:00:00 | |
| AA1-15 | 2026-09-01 12:14:22 | 54.77044 | 22.70906 | 0° | 0km/h | 159087m | 0m/s | -49.8°C | 0% | 70.9hPa | 2.3V | 00:00:00 | 00:00:00 | 00:00:00 | |
| AA1-15 | 2026-09-01 12:14:11 | 54.77044 | 22.70906 | 0° | 0km/h | 159087m | 0m/s | -49.5°C | 0% | 71.5hPa | 2.3V | 00:00:00 | 00:00:00 | 00:00:00 | |
| AA1-15 | 2026-09-01 12:14:00 | 54.77044 | 22.70906 | 0° | 0km/h | 159087m | 0m/s | -49.3°C | 0% | 72.1hPa | 2.3V | 00:00:00 | 00:00:00 | 00:00:00 | |
| AA1-15 | 2026-09-01 12:13:49 | 54.88408 | 20.04060 | 0° | 0km/h | 159087m | 0m/s | -49.1°C | 0% | 72.7hPa | 2.3V | 00:00:00 | 00:00:00 | 00:00:00 | |
| AA1-15 | 2026-09-01 12:13:39 | 54.88408 | 20.04060 | 0° | 0km/h | 159087m | 0m/s | -49°C | 0% | 73.2hPa | 2.3V | 00:00:00 | 00:00:00 | 00:00:00 | |
| AA1-15 | 2026-09-01 12:13:28 | 54.88408 | 20.04060 | 0° | 0km/h | 159087m | 0m/s | -49.7°C | 0% | 73.8hPa | 2.3V | 00:00:00 | 00:00:00 | 00:00:00 | |
| AA1-15 | 2026-09-01 12:13:16 | 54.88408 | 20.04060 | 0° | 0km/h | 159087m | 0m/s | -49.6°C | 0% | 74.5hPa | 2.3V | 00:00:00 | 00:00:00 | 00:00:00 | |
| SP3BTT-10 | 2026-09-01 12:03:00 | 54.70047 | 18.03251 | 69° | 42km/h | 15307m | 6.1m/s | 0°C | 0% | 0hPa | 0V | 00:00:00 | 00:00:00 | 00:00:00 | |
| SP3BTT-10 | 2026-09-01 12:01:56 | 54.69853 | 18.02098 | 64° | 46km/h | 14995m | -1.0m/s | 0°C | 0% | 0hPa | 0V | 00:00:00 | 00:00:00 | 00:00:00 | |
| SP3BTT-10 | 2026-09-01 12:01:15 | 54.69675 | 18.01299 | 64° | 40km/h | 14824m | 5.8m/s | 0°C | 0% | 0hPa | 0V | 00:00:00 | 00:00:00 | 00:00:00 | |
| SP3BTT-10 | 2026-09-01 11:59:58 | 54.69273 | 17.99930 | 54° | 42km/h | 14448m | 4.2m/s | 0°C | 0% | 0hPa | 0V | 00:00:00 | 00:00:00 | 00:00:00 | |
| SP3BTT-10 | 2026-09-01 11:59:05 | 54.69088 | 17.99193 | 73° | 37km/h | 14167m | 10.5m/s | 0°C | 0% | 0hPa | 0V | 00:00:00 | 00:00:00 | 00:00:00 | |
| SP3BTT-10 | 2026-09-01 11:57:48 | 54.68952 | 17.97803 | 76° | 47km/h | 13749m | 4.3m/s | 0°C | 0% | 0hPa | 0V | 00:00:00 | 00:00:00 | 00:00:00 | |
| SP3BTT-10 | 2026-09-01 11:53:41 | 54.68751 | 17.93133 | 82° | 51km/h | 12432m | 4.8m/s | 0°C | 0% | 0hPa | 0V | 00:00:00 | 00:00:00 | 00:00:00 | |
| SP3BTT-10 | 2026-09-01 11:51:23 | 54.68874 | 17.89898 | 97° | 57km/h | 11672m | 6.4m/s | 0°C | 0% | 0hPa | 0V | 00:00:00 | 00:00:00 | 00:00:00 | |
| SP3BTT-10 | 2026-09-01 11:50:07 | 54.69030 | 17.88038 | 101° | 58km/h | 11257m | 7.2m/s | 0°C | 0% | 0hPa | 0V | 00:00:00 | 00:00:00 | 00:00:00 | |
| SP3BTT-10 | 2026-09-01 11:49:11 | 54.69201 | 17.86898 | 100° | 53km/h | 10919m | 3.2m/s | 0°C | 0% | 0hPa | 0V | 00:00:00 | 00:00:00 | 00:00:00 |